WPT5019 SBFZ-LPPT
Flight info
| Callsign | WPT5019 |
|---|---|
| Flight time | 6h 54m |
| Altitude | 37000 |
| Route | TOGAB UZ18 ARTIG UN866 DEKON/N0472F360 UN866 BUXON/N0467F380 UN866 AMDOL/N0469F370 UN866 TENPA/N0464F390 N866 GOMER/N0459F380 N866 KONBA UN866 BEXAL DCT LUVUP |
| Aircraft | A339/H-SADE1E2E3GHIJ3J5M1P2RWXY/LB2D1 |
Departure
| Time | 2026-05-08 12:09 |
|---|---|
| Airport | Pinto Martins International Airport (SBFZ) |
Arrival
| Time | 2026-05-08 19:03 |
|---|---|
| Airport | Lisbon Humberto Delgado Airport (LPPT) |
| Time | Latitude | Longitude | Altitude | Speed | Heading |
|---|---|---|---|---|---|
| 2026-05-08 11:20 | -3.77769 | -38.54055 | 94 ft | 0 kts | 195° |
| 2026-05-08 11:56 | -3.77752 | -38.54051 | 93 ft | 3 kts | 195° |
| 2026-05-08 11:56 | -3.77734 | -38.54046 | 94 ft | 2 kts | 195° |
| 2026-05-08 11:56 | -3.77717 | -38.54041 | 94 ft | 3 kts | 217° |
| 2026-05-08 11:57 | -3.77704 | -38.54033 | 93 ft | 3 kts | 250° |
| 2026-05-08 11:57 | -3.77698 | -38.54017 | 75 ft | 3 kts | 278° |
| 2026-05-08 11:57 | -3.77702 | -38.53997 | 94 ft | 3 kts | 285° |
| 2026-05-08 11:57 | -3.77705 | -38.53987 | 90 ft | 1 kts | 285° |
| 2026-05-08 11:59 | -3.77705 | -38.53986 | 90 ft | 0 kts | 285° |
| 2026-05-08 12:04 | -3.77705 | -38.53987 | 91 ft | 1 kts | 285° |
| 2026-05-08 12:04 | -3.77699 | -38.54010 | 111 ft | 7 kts | 284° |
| 2026-05-08 12:05 | -3.77682 | -38.54077 | 96 ft | 13 kts | 284° |
| 2026-05-08 12:05 | -3.77655 | -38.54183 | 97 ft | 19 kts | 284° |
| 2026-05-08 12:05 | -3.77622 | -38.54309 | 98 ft | 19 kts | 286° |
| 2026-05-08 12:05 | -3.77535 | -38.54382 | 98 ft | 16 kts | 337° |
| 2026-05-08 12:06 | -3.77456 | -38.54383 | 98 ft | 0 kts | 11° |
| 2026-05-08 12:07 | -3.77454 | -38.54383 | 98 ft | 0 kts | 11° |
| 2026-05-08 12:08 | -3.77443 | -38.54381 | 101 ft | 5 kts | 11° |
| 2026-05-08 12:08 | -3.77384 | -38.54363 | 101 ft | 11 kts | 24° |
| 2026-05-08 12:08 | -3.77357 | -38.54291 | 100 ft | 12 kts | 89° |
| 2026-05-08 12:09 | -3.77391 | -38.54149 | 101 ft | 45 kts | 106° |
| 2026-05-08 12:09 | -3.77569 | -38.53506 | 91 ft | 141 kts | 105° |
| 2026-05-08 12:09 | -3.77847 | -38.52350 | 370 ft | 188 kts | 108° |
| 2026-05-08 12:09 | -3.78172 | -38.51014 | 990 ft | 208 kts | 105° |
| 2026-05-08 12:10 | -3.78517 | -38.49560 | 1977 ft | 214 kts | 108° |
| 2026-05-08 12:10 | -3.78795 | -38.48056 | 2772 ft | 231 kts | 92° |
| 2026-05-08 12:10 | -3.78404 | -38.46425 | 3236 ft | 255 kts | 68° |
| 2026-05-08 12:10 | -3.77377 | -38.44929 | 3905 ft | 263 kts | 54° |
| 2026-05-08 12:11 | -3.76158 | -38.43556 | 4689 ft | 267 kts | 51° |
| 2026-05-08 12:11 | -3.74916 | -38.42135 | 5328 ft | 274 kts | 53° |
| 2026-05-08 12:11 | -3.73713 | -38.40662 | 6143 ft | 272 kts | 54° |
| 2026-05-08 12:11 | -3.72552 | -38.39161 | 6883 ft | 274 kts | 56° |
| 2026-05-08 12:12 | -3.71399 | -38.37620 | 7581 ft | 276 kts | 56° |
| 2026-05-08 12:12 | -3.70255 | -38.36070 | 8334 ft | 277 kts | 56° |
| 2026-05-08 12:12 | -3.69105 | -38.34507 | 9030 ft | 280 kts | 56° |
| 2026-05-08 12:12 | -3.67946 | -38.32929 | 9764 ft | 282 kts | 56° |
| 2026-05-08 12:13 | -3.66772 | -38.31337 | 10291 ft | 290 kts | 56° |
| 2026-05-08 12:13 | -3.65534 | -38.29654 | 10490 ft | 311 kts | 56° |
| 2026-05-08 12:13 | -3.64211 | -38.27856 | 10655 ft | 330 kts | 56° |
| 2026-05-08 12:13 | -3.62827 | -38.25983 | 11119 ft | 337 kts | 56° |
| 2026-05-08 12:14 | -3.61422 | -38.24090 | 11698 ft | 340 kts | 56° |
| 2026-05-08 12:14 | -3.60021 | -38.22204 | 12289 ft | 343 kts | 56° |
| 2026-05-08 12:14 | -3.58573 | -38.20249 | 12878 ft | 347 kts | 56° |
| 2026-05-08 12:14 | -3.57130 | -38.18297 | 13443 ft | 350 kts | 56° |
| 2026-05-08 12:15 | -3.55690 | -38.16349 | 13990 ft | 354 kts | 56° |
| 2026-05-08 12:15 | -3.54219 | -38.14361 | 14502 ft | 357 kts | 54° |
| 2026-05-08 12:15 | -3.52720 | -38.12376 | 15010 ft | 360 kts | 54° |
| 2026-05-08 12:15 | -3.51201 | -38.10372 | 15507 ft | 363 kts | 54° |
| 2026-05-08 12:16 | -3.49678 | -38.08339 | 15997 ft | 366 kts | 55° |
| 2026-05-08 12:16 | -3.48157 | -38.06289 | 16487 ft | 368 kts | 55° |
| 2026-05-08 12:16 | -3.46628 | -38.04216 | 16971 ft | 371 kts | 55° |
| 2026-05-08 12:16 | -3.45090 | -38.02128 | 17438 ft | 374 kts | 55° |
| 2026-05-08 12:17 | -3.43542 | -38.00023 | 17925 ft | 377 kts | 55° |
| 2026-05-08 12:17 | -3.41980 | -37.97902 | 18367 ft | 380 kts | 55° |
| 2026-05-08 12:17 | -3.40405 | -37.95763 | 18777 ft | 383 kts | 55° |
| 2026-05-08 12:17 | -3.38819 | -37.93611 | 19197 ft | 386 kts | 55° |
| 2026-05-08 12:18 | -3.37219 | -37.91442 | 19579 ft | 389 kts | 55° |
| 2026-05-08 12:18 | -3.35606 | -37.89255 | 20023 ft | 391 kts | 54° |
| 2026-05-08 12:18 | -3.33983 | -37.87056 | 20443 ft | 394 kts | 54° |
| 2026-05-08 12:18 | -3.32347 | -37.84839 | 20842 ft | 397 kts | 54° |
| 2026-05-08 12:19 | -3.30718 | -37.82631 | 21243 ft | 400 kts | 54° |
| 2026-05-08 12:19 | -3.29062 | -37.80386 | 21661 ft | 403 kts | 54° |
| 2026-05-08 12:19 | -3.27366 | -37.78088 | 22043 ft | 407 kts | 54° |
| 2026-05-08 12:19 | -3.25723 | -37.75769 | 22439 ft | 410 kts | 57° |
| 2026-05-08 12:20 | -3.24177 | -37.73396 | 22827 ft | 413 kts | 57° |
| 2026-05-08 12:20 | -3.22596 | -37.70976 | 23214 ft | 417 kts | 57° |
| 2026-05-08 12:20 | -3.20999 | -37.68540 | 23611 ft | 420 kts | 56° |
| 2026-05-08 12:20 | -3.19387 | -37.66086 | 23941 ft | 423 kts | 56° |
| 2026-05-08 12:21 | -3.17763 | -37.63615 | 24299 ft | 426 kts | 56° |
| 2026-05-08 12:21 | -3.16130 | -37.61130 | 24653 ft | 428 kts | 56° |
| 2026-05-08 12:21 | -3.14487 | -37.58630 | 24992 ft | 431 kts | 56° |
| 2026-05-08 12:21 | -3.12832 | -37.56114 | 25327 ft | 435 kts | 56° |
| 2026-05-08 12:22 | -3.11161 | -37.53573 | 25672 ft | 437 kts | 56° |
| 2026-05-08 12:22 | -3.09481 | -37.51018 | 26021 ft | 440 kts | 56° |
| 2026-05-08 12:22 | -3.07794 | -37.48454 | 26361 ft | 442 kts | 56° |
| 2026-05-08 12:22 | -3.06096 | -37.45873 | 26684 ft | 445 kts | 56° |
| 2026-05-08 12:23 | -3.04390 | -37.43281 | 27028 ft | 448 kts | 56° |
| 2026-05-08 12:23 | -3.02672 | -37.40670 | 27351 ft | 451 kts | 56° |
| 2026-05-08 12:23 | -3.00938 | -37.38037 | 27688 ft | 453 kts | 56° |
| 2026-05-08 12:23 | -2.99199 | -37.35395 | 28004 ft | 456 kts | 56° |
| 2026-05-08 12:24 | -2.97473 | -37.32772 | 28320 ft | 459 kts | 56° |
| 2026-05-08 12:24 | -2.95694 | -37.30070 | 28645 ft | 461 kts | 56° |
| 2026-05-08 12:24 | -2.93945 | -37.27412 | 28950 ft | 464 kts | 56° |
| 2026-05-08 12:24 | -2.92160 | -37.24702 | 29268 ft | 467 kts | 56° |
| 2026-05-08 12:25 | -2.90369 | -37.21984 | 29576 ft | 469 kts | 56° |
| 2026-05-08 12:25 | -2.88568 | -37.19249 | 29884 ft | 472 kts | 56° |
| 2026-05-08 12:25 | -2.86754 | -37.16494 | 30194 ft | 474 kts | 56° |
| 2026-05-08 12:25 | -2.84935 | -37.13732 | 30504 ft | 476 kts | 56° |
| 2026-05-08 12:26 | -2.83110 | -37.10960 | 30825 ft | 478 kts | 56° |
| 2026-05-08 12:26 | -2.81276 | -37.08177 | 31127 ft | 480 kts | 56° |
| 2026-05-08 12:26 | -2.79434 | -37.05380 | 31433 ft | 482 kts | 56° |
| 2026-05-08 12:26 | -2.77584 | -37.02572 | 31757 ft | 484 kts | 56° |
| 2026-05-08 12:27 | -2.75750 | -36.99787 | 32059 ft | 486 kts | 56° |
| 2026-05-08 12:27 | -2.73885 | -36.96957 | 32345 ft | 488 kts | 56° |
| 2026-05-08 12:27 | -2.72013 | -36.94116 | 32608 ft | 490 kts | 56° |
| 2026-05-08 12:27 | -2.70134 | -36.91265 | 32837 ft | 492 kts | 56° |
| 2026-05-08 12:28 | -2.68246 | -36.88398 | 33044 ft | 493 kts | 56° |
| 2026-05-08 12:28 | -2.66354 | -36.85527 | 33239 ft | 494 kts | 56° |
| 2026-05-08 12:28 | -2.64460 | -36.82653 | 33397 ft | 495 kts | 56° |
| 2026-05-08 12:28 | -2.62563 | -36.79775 | 33582 ft | 496 kts | 56° |
| 2026-05-08 12:29 | -2.60667 | -36.76898 | 33795 ft | 495 kts | 56° |
| 2026-05-08 12:29 | -2.58773 | -36.74026 | 34001 ft | 494 kts | 56° |
| 2026-05-08 12:29 | -2.56884 | -36.71159 | 34217 ft | 493 kts | 56° |
| 2026-05-08 12:29 | -2.54997 | -36.68297 | 34394 ft | 492 kts | 56° |
| 2026-05-08 12:30 | -2.53114 | -36.65441 | 34600 ft | 492 kts | 56° |
| 2026-05-08 12:30 | -2.51233 | -36.62588 | 34791 ft | 491 kts | 56° |
| 2026-05-08 12:30 | -2.49380 | -36.59778 | 34977 ft | 490 kts | 56° |
| 2026-05-08 12:30 | -2.47504 | -36.56933 | 35177 ft | 490 kts | 56° |
| 2026-05-08 12:31 | -2.45630 | -36.54091 | 35364 ft | 489 kts | 56° |
| 2026-05-08 12:31 | -2.43757 | -36.51252 | 35577 ft | 489 kts | 56° |
| 2026-05-08 12:31 | -2.41886 | -36.48415 | 35759 ft | 489 kts | 55° |
| 2026-05-08 12:31 | -2.40016 | -36.45579 | 35955 ft | 488 kts | 55° |
| 2026-05-08 12:32 | -2.38147 | -36.42745 | 36173 ft | 488 kts | 55° |
| 2026-05-08 12:32 | -2.36277 | -36.39912 | 36355 ft | 488 kts | 55° |
| 2026-05-08 12:32 | -2.34408 | -36.37078 | 36551 ft | 488 kts | 55° |
| 2026-05-08 12:32 | -2.32539 | -36.34245 | 36746 ft | 488 kts | 55° |
| 2026-05-08 12:33 | -2.30669 | -36.31410 | 36915 ft | 488 kts | 55° |
| 2026-05-08 12:33 | -2.28800 | -36.28577 | 36971 ft | 487 kts | 55° |
| 2026-05-08 12:33 | -2.25068 | -36.22922 | 36978 ft | 487 kts | 55° |
| 2026-05-08 12:34 | -2.21338 | -36.17272 | 36975 ft | 487 kts | 55° |
| 2026-05-08 12:34 | -2.17628 | -36.11651 | 36975 ft | 487 kts | 55° |
| 2026-05-08 12:35 | -2.13893 | -36.05993 | 36977 ft | 487 kts | 55° |
| 2026-05-08 12:35 | -2.10171 | -36.00357 | 36977 ft | 487 kts | 55° |
| 2026-05-08 12:36 | -2.06432 | -35.94694 | 36978 ft | 487 kts | 55° |
| 2026-05-08 12:36 | -2.02697 | -35.89037 | 36979 ft | 487 kts | 55° |
| 2026-05-08 12:37 | -1.98959 | -35.83378 | 36981 ft | 487 kts | 55° |
| 2026-05-08 12:37 | -1.95225 | -35.77725 | 36977 ft | 487 kts | 55° |
| 2026-05-08 12:38 | -1.91522 | -35.72118 | 36975 ft | 487 kts | 55° |
| 2026-05-08 12:38 | -1.87786 | -35.66463 | 36977 ft | 487 kts | 55° |
| 2026-05-08 12:39 | -1.84051 | -35.60809 | 36977 ft | 487 kts | 55° |
| 2026-05-08 12:39 | -1.80311 | -35.55148 | 36978 ft | 487 kts | 55° |
| 2026-05-08 12:40 | -1.76482 | -35.49569 | 36978 ft | 486 kts | 50° |
| 2026-05-08 12:40 | -1.71638 | -35.44911 | 36976 ft | 483 kts | 35° |
| 2026-05-08 12:41 | -1.65887 | -35.41479 | 36976 ft | 481 kts | 27° |
| 2026-05-08 12:41 | -1.60008 | -35.38270 | 36978 ft | 481 kts | 27° |
| 2026-05-08 12:42 | -1.54141 | -35.35042 | 36978 ft | 481 kts | 27° |
| 2026-05-08 12:42 | -1.48309 | -35.31835 | 36979 ft | 481 kts | 27° |
| 2026-05-08 12:43 | -1.42436 | -35.28608 | 36981 ft | 481 kts | 27° |
| 2026-05-08 12:43 | -1.36573 | -35.25387 | 36980 ft | 481 kts | 27° |
| 2026-05-08 12:44 | -1.31693 | -35.22706 | 36981 ft | 481 kts | 28° |
| 2026-05-08 12:44 | -1.25831 | -35.19486 | 36978 ft | 481 kts | 28° |
| 2026-05-08 12:45 | -1.19961 | -35.16261 | 36973 ft | 481 kts | 28° |
| 2026-05-08 12:45 | -1.14105 | -35.13044 | 36977 ft | 481 kts | 28° |
| 2026-05-08 12:46 | -1.08229 | -35.09816 | 36976 ft | 481 kts | 28° |
| 2026-05-08 12:46 | -1.02365 | -35.06595 | 36978 ft | 481 kts | 28° |
| 2026-05-08 12:47 | -0.96530 | -35.03390 | 37157 ft | 482 kts | 28° |
| 2026-05-08 12:47 | -0.93591 | -35.01776 | 37377 ft | 482 kts | 28° |
| 2026-05-08 12:47 | -0.90923 | -35.00311 | 37558 ft | 481 kts | 28° |
| 2026-05-08 12:48 | -0.87991 | -34.98700 | 37765 ft | 481 kts | 28° |
| 2026-05-08 12:48 | -0.85061 | -34.97091 | 37973 ft | 480 kts | 28° |
| 2026-05-08 12:48 | -0.82130 | -34.95481 | 38161 ft | 480 kts | 28° |
| 2026-05-08 12:48 | -0.79204 | -34.93875 | 38373 ft | 479 kts | 28° |
| 2026-05-08 12:49 | -0.76280 | -34.92269 | 38568 ft | 479 kts | 28° |
| 2026-05-08 12:49 | -0.73362 | -34.90666 | 38768 ft | 478 kts | 28° |
| 2026-05-08 12:49 | -0.70444 | -34.89064 | 38904 ft | 479 kts | 28° |
| 2026-05-08 12:49 | -0.67527 | -34.87462 | 39052 ft | 479 kts | 28° |
| 2026-05-08 12:50 | -0.64613 | -34.85861 | 39198 ft | 479 kts | 27° |
| 2026-05-08 12:50 | -0.61687 | -34.84254 | 39338 ft | 479 kts | 27° |
| 2026-05-08 12:50 | -0.58765 | -34.82649 | 39476 ft | 479 kts | 27° |
| 2026-05-08 12:50 | -0.55843 | -34.81044 | 39605 ft | 479 kts | 27° |
| 2026-05-08 12:51 | -0.52923 | -34.79440 | 39741 ft | 480 kts | 27° |
| 2026-05-08 12:51 | -0.47066 | -34.76223 | 40012 ft | 480 kts | 27° |
| 2026-05-08 12:51 | -0.44178 | -34.74637 | 40144 ft | 480 kts | 27° |
| 2026-05-08 12:52 | -0.41250 | -34.73029 | 40268 ft | 480 kts | 27° |
| 2026-05-08 12:52 | -0.35380 | -34.69805 | 40535 ft | 480 kts | 27° |
| 2026-05-08 12:52 | -0.32444 | -34.68192 | 40666 ft | 480 kts | 27° |
| 2026-05-08 12:53 | -0.29512 | -34.66582 | 40793 ft | 481 kts | 27° |
| 2026-05-08 12:53 | -0.26581 | -34.64972 | 40914 ft | 481 kts | 26° |
| 2026-05-08 12:53 | -0.20721 | -34.61754 | 40979 ft | 481 kts | 26° |
| 2026-05-08 12:54 | -0.14897 | -34.58556 | 40979 ft | 481 kts | 26° |
| 2026-05-08 12:54 | -0.09033 | -34.55336 | 40981 ft | 481 kts | 26° |
| 2026-05-08 12:55 | -0.03165 | -34.52115 | 40979 ft | 481 kts | 26° |
| 2026-05-08 12:55 | 0.02713 | -34.48888 | 40979 ft | 482 kts | 26° |
| 2026-05-08 12:56 | 0.08586 | -34.45663 | 40984 ft | 482 kts | 26° |
| 2026-05-08 12:56 | 0.14461 | -34.42438 | 40983 ft | 482 kts | 26° |
| 2026-05-08 12:57 | 0.20336 | -34.39213 | 40982 ft | 482 kts | 26° |
| 2026-05-08 12:57 | 0.26217 | -34.35984 | 40982 ft | 482 kts | 26° |
| 2026-05-08 12:58 | 0.32099 | -34.32755 | 40986 ft | 482 kts | 26° |
| 2026-05-08 12:58 | 0.37934 | -34.29551 | 40979 ft | 482 kts | 26° |
| 2026-05-08 12:59 | 0.43815 | -34.26322 | 40982 ft | 482 kts | 26° |
| 2026-05-08 12:59 | 0.49695 | -34.23093 | 40983 ft | 481 kts | 26° |
| 2026-05-08 13:00 | 0.55566 | -34.19870 | 40982 ft | 481 kts | 26° |
| 2026-05-08 13:00 | 0.61433 | -34.16648 | 40987 ft | 481 kts | 26° |
| 2026-05-08 13:01 | 0.67266 | -34.13446 | 40986 ft | 481 kts | 26° |
| 2026-05-08 13:01 | 0.73135 | -34.10223 | 40991 ft | 481 kts | 26° |
| 2026-05-08 13:02 | 0.78997 | -34.07005 | 40987 ft | 481 kts | 26° |
| 2026-05-08 13:02 | 0.84857 | -34.03786 | 40986 ft | 480 kts | 26° |
| 2026-05-08 13:03 | 0.90723 | -34.00566 | 40984 ft | 480 kts | 26° |
| 2026-05-08 13:03 | 0.96581 | -33.97350 | 40987 ft | 480 kts | 26° |
| 2026-05-08 13:04 | 1.02441 | -33.94134 | 40988 ft | 480 kts | 26° |
| 2026-05-08 13:04 | 1.08258 | -33.90940 | 40987 ft | 480 kts | 26° |
| 2026-05-08 13:05 | 1.14113 | -33.87725 | 40983 ft | 480 kts | 26° |
| 2026-05-08 13:05 | 1.19968 | -33.84512 | 40980 ft | 480 kts | 26° |
| 2026-05-08 13:06 | 1.25827 | -33.81295 | 40986 ft | 480 kts | 26° |
| 2026-05-08 13:06 | 1.31680 | -33.78081 | 40984 ft | 480 kts | 26° |
| 2026-05-08 13:07 | 1.37533 | -33.74867 | 40988 ft | 480 kts | 26° |
| 2026-05-08 13:07 | 1.43383 | -33.71655 | 40990 ft | 480 kts | 26° |
| 2026-05-08 13:08 | 1.49231 | -33.68444 | 40987 ft | 479 kts | 26° |
| 2026-05-08 13:08 | 1.55074 | -33.65235 | 40988 ft | 479 kts | 26° |
| 2026-05-08 13:09 | 1.60873 | -33.62050 | 40988 ft | 479 kts | 26° |
| 2026-05-08 13:09 | 1.66752 | -33.58821 | 40990 ft | 478 kts | 26° |
| 2026-05-08 13:10 | 1.72543 | -33.55641 | 40989 ft | 478 kts | 26° |
| 2026-05-08 13:10 | 1.78370 | -33.52440 | 40988 ft | 477 kts | 27° |
| 2026-05-08 13:11 | 1.84192 | -33.49242 | 40983 ft | 477 kts | 27° |
| 2026-05-08 13:11 | 1.90020 | -33.46040 | 40981 ft | 477 kts | 27° |
| 2026-05-08 13:12 | 1.95837 | -33.42842 | 40982 ft | 478 kts | 27° |
| 2026-05-08 13:12 | 2.01673 | -33.39635 | 40980 ft | 478 kts | 27° |
| 2026-05-08 13:13 | 2.07510 | -33.36426 | 40979 ft | 479 kts | 27° |
| 2026-05-08 13:13 | 2.13354 | -33.33214 | 40977 ft | 480 kts | 27° |
| 2026-05-08 13:14 | 2.19173 | -33.30016 | 40979 ft | 480 kts | 27° |
| 2026-05-08 13:14 | 2.25028 | -33.26797 | 40984 ft | 480 kts | 27° |
| 2026-05-08 13:15 | 2.30887 | -33.23576 | 40984 ft | 481 kts | 27° |
| 2026-05-08 13:15 | 2.36752 | -33.20351 | 40985 ft | 481 kts | 27° |
| 2026-05-08 13:16 | 2.42613 | -33.17128 | 40987 ft | 481 kts | 26° |
| 2026-05-08 13:16 | 2.48475 | -33.13904 | 40988 ft | 481 kts | 26° |
| 2026-05-08 13:17 | 2.54336 | -33.10680 | 40988 ft | 481 kts | 26° |
| 2026-05-08 13:17 | 2.60200 | -33.07454 | 40989 ft | 480 kts | 26° |
| 2026-05-08 13:18 | 2.66057 | -33.04232 | 40990 ft | 480 kts | 26° |
| 2026-05-08 13:18 | 2.71908 | -33.01013 | 40986 ft | 480 kts | 26° |
| 2026-05-08 13:19 | 2.77764 | -32.97790 | 40985 ft | 480 kts | 26° |
| 2026-05-08 13:19 | 2.83573 | -32.94593 | 40985 ft | 479 kts | 26° |
| 2026-05-08 13:20 | 2.89424 | -32.91373 | 40984 ft | 479 kts | 26° |
| 2026-05-08 13:20 | 2.95265 | -32.88158 | 40985 ft | 479 kts | 26° |
| 2026-05-08 13:21 | 3.01111 | -32.84940 | 40980 ft | 479 kts | 26° |
| 2026-05-08 13:21 | 3.06961 | -32.81719 | 40983 ft | 479 kts | 27° |
| 2026-05-08 13:22 | 3.12758 | -32.78526 | 40984 ft | 479 kts | 26° |
| 2026-05-08 13:22 | 3.18599 | -32.75309 | 40982 ft | 479 kts | 27° |
| 2026-05-08 13:23 | 3.24426 | -32.72100 | 40981 ft | 479 kts | 27° |
| 2026-05-08 13:23 | 3.30261 | -32.68885 | 40980 ft | 478 kts | 26° |
| 2026-05-08 13:24 | 3.36102 | -32.65667 | 40983 ft | 479 kts | 26° |
| 2026-05-08 13:24 | 3.41906 | -32.62469 | 40983 ft | 479 kts | 26° |
| 2026-05-08 13:25 | 3.47734 | -32.59257 | 40982 ft | 479 kts | 26° |
| 2026-05-08 13:25 | 3.53574 | -32.56039 | 40982 ft | 479 kts | 26° |
| 2026-05-08 13:26 | 3.59403 | -32.52826 | 40983 ft | 479 kts | 26° |
| 2026-05-08 13:26 | 3.65248 | -32.49604 | 40978 ft | 479 kts | 26° |
| 2026-05-08 13:27 | 3.71085 | -32.46386 | 40983 ft | 479 kts | 26° |
| 2026-05-08 13:27 | 3.76928 | -32.43164 | 40983 ft | 479 kts | 26° |
| 2026-05-08 13:28 | 3.82767 | -32.39944 | 40980 ft | 479 kts | 26° |
| 2026-05-08 13:28 | 3.88606 | -32.36723 | 40977 ft | 479 kts | 26° |
| 2026-05-08 13:29 | 3.94446 | -32.33501 | 40978 ft | 479 kts | 26° |
| 2026-05-08 13:29 | 4.00255 | -32.30296 | 40978 ft | 479 kts | 26° |
| 2026-05-08 13:30 | 4.06104 | -32.27068 | 40976 ft | 479 kts | 26° |
| 2026-05-08 13:30 | 4.11947 | -32.23843 | 40972 ft | 479 kts | 26° |
| 2026-05-08 13:31 | 4.17791 | -32.20617 | 40977 ft | 480 kts | 26° |
| 2026-05-08 13:31 | 4.23636 | -32.17389 | 40977 ft | 480 kts | 26° |
| 2026-05-08 13:32 | 4.29443 | -32.14182 | 40975 ft | 480 kts | 26° |
| 2026-05-08 13:32 | 4.34314 | -32.11492 | 40978 ft | 480 kts | 26° |
| 2026-05-08 13:33 | 4.40175 | -32.08254 | 40974 ft | 480 kts | 26° |
| 2026-05-08 13:33 | 4.46023 | -32.05023 | 40977 ft | 480 kts | 26° |
| 2026-05-08 13:34 | 4.51871 | -32.01791 | 40974 ft | 480 kts | 26° |
| 2026-05-08 13:34 | 4.57725 | -31.98555 | 40977 ft | 480 kts | 26° |
| 2026-05-08 13:35 | 4.63574 | -31.95322 | 40977 ft | 480 kts | 26° |
| 2026-05-08 13:35 | 4.69432 | -31.92083 | 40974 ft | 480 kts | 26° |
| 2026-05-08 13:36 | 4.75245 | -31.88868 | 40975 ft | 480 kts | 26° |
| 2026-05-08 13:36 | 4.81098 | -31.85630 | 40980 ft | 480 kts | 26° |
| 2026-05-08 13:37 | 4.86959 | -31.82387 | 40975 ft | 480 kts | 26° |
| 2026-05-08 13:37 | 4.92826 | -31.79141 | 40974 ft | 480 kts | 26° |
| 2026-05-08 13:38 | 4.98647 | -31.75919 | 40975 ft | 481 kts | 26° |
| 2026-05-08 13:38 | 5.04503 | -31.72677 | 40973 ft | 481 kts | 26° |
| 2026-05-08 13:39 | 5.10360 | -31.69434 | 40974 ft | 481 kts | 26° |
| 2026-05-08 13:39 | 5.16229 | -31.66183 | 40976 ft | 481 kts | 26° |
| 2026-05-08 13:40 | 5.22087 | -31.62939 | 40975 ft | 481 kts | 26° |
| 2026-05-08 13:40 | 5.27932 | -31.59663 | 40974 ft | 481 kts | 26° |
| 2026-05-08 13:41 | 5.33766 | -31.56376 | 40974 ft | 481 kts | 26° |
| 2026-05-08 13:41 | 5.39614 | -31.53087 | 40975 ft | 481 kts | 26° |
| 2026-05-08 13:42 | 5.45458 | -31.49802 | 40975 ft | 481 kts | 26° |
| 2026-05-08 13:42 | 5.51301 | -31.46517 | 40975 ft | 481 kts | 26° |
| 2026-05-08 13:43 | 5.57112 | -31.43249 | 40978 ft | 481 kts | 26° |
| 2026-05-08 13:43 | 5.62954 | -31.39963 | 40974 ft | 481 kts | 26° |
| 2026-05-08 13:44 | 5.68797 | -31.36675 | 40975 ft | 481 kts | 26° |
| 2026-05-08 13:44 | 5.74632 | -31.33391 | 40975 ft | 481 kts | 26° |
| 2026-05-08 13:45 | 5.80481 | -31.30099 | 40972 ft | 481 kts | 26° |
| 2026-05-08 13:45 | 5.86324 | -31.26809 | 40976 ft | 481 kts | 26° |
| 2026-05-08 13:46 | 5.92166 | -31.23519 | 40976 ft | 481 kts | 26° |
| 2026-05-08 13:46 | 5.98008 | -31.20228 | 40977 ft | 481 kts | 26° |
| 2026-05-08 13:47 | 6.03848 | -31.16937 | 40973 ft | 481 kts | 26° |
| 2026-05-08 13:47 | 6.09695 | -31.13642 | 40973 ft | 481 kts | 26° |
| 2026-05-08 13:48 | 6.15496 | -31.10372 | 40977 ft | 481 kts | 26° |
| 2026-05-08 13:48 | 6.21343 | -31.07075 | 40977 ft | 481 kts | 26° |
| 2026-05-08 13:49 | 6.27195 | -31.03774 | 40979 ft | 481 kts | 26° |
| 2026-05-08 13:49 | 6.33030 | -31.00482 | 40977 ft | 481 kts | 26° |
| 2026-05-08 13:50 | 6.38878 | -30.97182 | 40974 ft | 481 kts | 26° |
| 2026-05-08 13:50 | 6.44727 | -30.93880 | 40977 ft | 482 kts | 26° |
| 2026-05-08 13:51 | 6.50538 | -30.90599 | 40976 ft | 482 kts | 26° |
| 2026-05-08 13:51 | 6.56390 | -30.87295 | 40976 ft | 482 kts | 26° |
| 2026-05-08 13:52 | 6.62240 | -30.83990 | 40981 ft | 482 kts | 26° |
| 2026-05-08 13:52 | 6.68089 | -30.80684 | 40981 ft | 482 kts | 26° |
| 2026-05-08 13:53 | 6.73903 | -30.77398 | 40980 ft | 482 kts | 26° |
| 2026-05-08 13:53 | 6.79755 | -30.74089 | 40979 ft | 482 kts | 26° |
| 2026-05-08 13:54 | 6.85611 | -30.70778 | 40975 ft | 482 kts | 26° |
| 2026-05-08 13:54 | 6.91456 | -30.67471 | 40975 ft | 483 kts | 26° |
| 2026-05-08 13:55 | 6.97317 | -30.64154 | 40977 ft | 483 kts | 26° |
| 2026-05-08 13:56 | 7.06111 | -30.59176 | 40977 ft | 483 kts | 26° |
| 2026-05-08 13:56 | 7.11968 | -30.55859 | 40979 ft | 483 kts | 26° |
| 2026-05-08 13:57 | 7.17815 | -30.52547 | 40980 ft | 483 kts | 26° |
| 2026-05-08 13:57 | 7.23634 | -30.49250 | 40981 ft | 482 kts | 26° |
| 2026-05-08 13:58 | 7.29485 | -30.45934 | 40982 ft | 482 kts | 26° |
| 2026-05-08 13:58 | 7.35338 | -30.42616 | 40980 ft | 482 kts | 26° |
| 2026-05-08 13:59 | 7.41186 | -30.39300 | 40980 ft | 482 kts | 26° |
| 2026-05-08 13:59 | 7.47039 | -30.35979 | 40981 ft | 482 kts | 26° |
| 2026-05-08 14:00 | 7.52884 | -30.32662 | 40982 ft | 482 kts | 26° |
| 2026-05-08 14:00 | 7.58696 | -30.29363 | 40981 ft | 482 kts | 26° |
| 2026-05-08 14:01 | 7.64540 | -30.26045 | 40980 ft | 482 kts | 26° |
| 2026-05-08 14:01 | 7.70385 | -30.22725 | 40981 ft | 482 kts | 26° |
| 2026-05-08 14:02 | 7.76227 | -30.19406 | 40982 ft | 482 kts | 26° |
| 2026-05-08 14:02 | 7.82080 | -30.16079 | 40981 ft | 482 kts | 26° |
| 2026-05-08 14:03 | 7.87921 | -30.12758 | 40981 ft | 482 kts | 26° |
| 2026-05-08 14:03 | 7.93728 | -30.09455 | 40979 ft | 482 kts | 26° |
| 2026-05-08 14:04 | 7.99573 | -30.06129 | 40983 ft | 482 kts | 26° |
| 2026-05-08 14:04 | 8.05424 | -30.02799 | 40978 ft | 482 kts | 26° |
| 2026-05-08 14:05 | 8.11232 | -29.99492 | 40977 ft | 482 kts | 26° |
| 2026-05-08 14:05 | 8.17073 | -29.96166 | 40978 ft | 482 kts | 26° |
| 2026-05-08 14:06 | 8.22918 | -29.92836 | 40979 ft | 482 kts | 27° |
| 2026-05-08 14:06 | 8.28772 | -29.89500 | 40981 ft | 483 kts | 27° |
| 2026-05-08 14:07 | 8.34625 | -29.86163 | 40982 ft | 483 kts | 27° |
| 2026-05-08 14:07 | 8.40456 | -29.82838 | 40984 ft | 483 kts | 27° |
| 2026-05-08 14:08 | 8.46318 | -29.79495 | 40982 ft | 484 kts | 27° |
| 2026-05-08 14:08 | 8.52181 | -29.76149 | 40983 ft | 484 kts | 27° |
| 2026-05-08 14:09 | 8.58047 | -29.72798 | 40983 ft | 484 kts | 27° |
| 2026-05-08 14:09 | 8.63924 | -29.69442 | 40979 ft | 485 kts | 26° |
| 2026-05-08 14:10 | 8.69803 | -29.66083 | 40979 ft | 485 kts | 26° |
| 2026-05-08 14:10 | 8.75682 | -29.62722 | 40985 ft | 486 kts | 26° |
| 2026-05-08 14:11 | 8.81527 | -29.59380 | 40984 ft | 486 kts | 26° |
| 2026-05-08 14:11 | 8.87421 | -29.56009 | 40988 ft | 486 kts | 26° |
| 2026-05-08 14:12 | 8.93309 | -29.52640 | 40986 ft | 486 kts | 26° |
| 2026-05-08 14:12 | 8.99208 | -29.49263 | 40987 ft | 486 kts | 26° |
| 2026-05-08 14:13 | 9.05099 | -29.45890 | 40989 ft | 487 kts | 26° |
| 2026-05-08 14:13 | 9.10959 | -29.42533 | 40986 ft | 487 kts | 26° |
| 2026-05-08 14:14 | 9.16852 | -29.39156 | 40988 ft | 487 kts | 26° |
| 2026-05-08 14:14 | 9.22747 | -29.35776 | 40987 ft | 487 kts | 26° |
| 2026-05-08 14:15 | 9.28642 | -29.32396 | 40988 ft | 487 kts | 26° |
| 2026-05-08 14:15 | 9.34542 | -29.29010 | 40989 ft | 487 kts | 26° |
| 2026-05-08 14:16 | 9.40436 | -29.25627 | 40991 ft | 487 kts | 26° |
| 2026-05-08 14:16 | 9.46339 | -29.22238 | 40990 ft | 487 kts | 26° |
| 2026-05-08 14:17 | 9.52203 | -29.18870 | 40989 ft | 487 kts | 26° |
| 2026-05-08 14:17 | 9.58101 | -29.15481 | 40991 ft | 487 kts | 26° |
| 2026-05-08 14:18 | 9.64001 | -29.12089 | 40992 ft | 487 kts | 26° |
| 2026-05-08 14:18 | 9.69914 | -29.08689 | 40994 ft | 488 kts | 26° |
| 2026-05-08 14:19 | 9.75815 | -29.05293 | 40988 ft | 488 kts | 26° |
| 2026-05-08 14:19 | 9.81716 | -29.01897 | 40986 ft | 488 kts | 26° |
| 2026-05-08 14:20 | 9.87624 | -28.98492 | 40989 ft | 488 kts | 26° |
| 2026-05-08 14:20 | 9.93495 | -28.95110 | 40985 ft | 488 kts | 26° |
| 2026-05-08 14:21 | 9.99395 | -28.91710 | 40984 ft | 488 kts | 25° |
| 2026-05-08 14:21 | 10.04348 | -28.88855 | 40985 ft | 488 kts | 25° |
| 2026-05-08 14:22 | 10.10222 | -28.85467 | 40992 ft | 489 kts | 25° |
| 2026-05-08 14:22 | 10.16126 | -28.82061 | 40992 ft | 489 kts | 25° |
| 2026-05-08 14:23 | 10.22042 | -28.78646 | 40989 ft | 489 kts | 25° |
| 2026-05-08 14:23 | 10.27968 | -28.75223 | 40993 ft | 490 kts | 25° |
| 2026-05-08 14:24 | 10.33895 | -28.71798 | 40995 ft | 490 kts | 25° |
| 2026-05-08 14:24 | 10.39819 | -28.68373 | 40994 ft | 490 kts | 25° |
| 2026-05-08 14:25 | 10.45748 | -28.64944 | 40994 ft | 490 kts | 25° |
| 2026-05-08 14:25 | 10.51680 | -28.61512 | 40995 ft | 490 kts | 25° |
| 2026-05-08 14:26 | 10.57565 | -28.58106 | 40997 ft | 490 kts | 25° |
| 2026-05-08 14:26 | 10.63497 | -28.54671 | 40999 ft | 490 kts | 25° |
| 2026-05-08 14:27 | 10.69415 | -28.51242 | 41000 ft | 490 kts | 25° |
| 2026-05-08 14:27 | 10.75333 | -28.47813 | 40998 ft | 489 kts | 25° |
| 2026-05-08 14:28 | 10.81247 | -28.44383 | 40997 ft | 489 kts | 25° |
| 2026-05-08 14:28 | 10.87128 | -28.40972 | 40999 ft | 489 kts | 25° |
| 2026-05-08 14:29 | 10.93039 | -28.37540 | 41000 ft | 488 kts | 25° |
| 2026-05-08 14:29 | 10.98952 | -28.34107 | 40997 ft | 488 kts | 26° |
| 2026-05-08 14:30 | 11.04854 | -28.30678 | 40996 ft | 488 kts | 26° |
| 2026-05-08 14:30 | 11.10745 | -28.27254 | 40994 ft | 487 kts | 26° |
| 2026-05-08 14:31 | 11.16632 | -28.23831 | 40994 ft | 487 kts | 26° |
| 2026-05-08 14:31 | 11.22481 | -28.20428 | 40999 ft | 487 kts | 26° |
| 2026-05-08 14:32 | 11.31302 | -28.15294 | 41000 ft | 486 kts | 26° |
| 2026-05-08 14:32 | 11.37177 | -28.11872 | 40996 ft | 486 kts | 26° |
| 2026-05-08 14:33 | 11.43043 | -28.08454 | 40997 ft | 485 kts | 26° |
| 2026-05-08 14:33 | 11.48905 | -28.05036 | 40998 ft | 485 kts | 26° |
| 2026-05-08 14:34 | 11.54732 | -28.01637 | 40997 ft | 485 kts | 26° |
| 2026-05-08 14:34 | 11.60585 | -27.98222 | 41000 ft | 484 kts | 26° |
| 2026-05-08 14:35 | 11.66431 | -27.94808 | 41001 ft | 484 kts | 26° |
| 2026-05-08 14:35 | 11.72273 | -27.91396 | 41000 ft | 484 kts | 26° |
| 2026-05-08 14:36 | 11.78108 | -27.87985 | 41000 ft | 483 kts | 26° |
| 2026-05-08 14:36 | 11.83939 | -27.84576 | 41000 ft | 483 kts | 26° |
| 2026-05-08 14:37 | 11.89770 | -27.81165 | 41000 ft | 482 kts | 26° |
| 2026-05-08 14:37 | 11.95592 | -27.77757 | 40997 ft | 482 kts | 27° |
| 2026-05-08 14:38 | 12.01403 | -27.74354 | 40999 ft | 482 kts | 27° |
| 2026-05-08 14:38 | 12.07185 | -27.70966 | 40997 ft | 482 kts | 27° |
| 2026-05-08 14:39 | 12.12997 | -27.67560 | 40997 ft | 481 kts | 27° |
| 2026-05-08 14:39 | 12.18806 | -27.64153 | 40998 ft | 481 kts | 27° |
| 2026-05-08 14:40 | 12.24612 | -27.60746 | 40995 ft | 481 kts | 27° |
| 2026-05-08 14:40 | 12.30417 | -27.57339 | 40996 ft | 481 kts | 27° |
| 2026-05-08 14:41 | 12.36221 | -27.53929 | 40995 ft | 481 kts | 27° |
| 2026-05-08 14:41 | 12.42027 | -27.50517 | 41001 ft | 481 kts | 27° |
| 2026-05-08 14:42 | 12.47833 | -27.47104 | 41000 ft | 481 kts | 27° |
| 2026-05-08 14:42 | 12.53626 | -27.43695 | 41004 ft | 481 kts | 27° |
| 2026-05-08 14:43 | 12.59430 | -27.40278 | 41003 ft | 481 kts | 27° |
| 2026-05-08 14:43 | 12.65227 | -27.36865 | 40999 ft | 480 kts | 27° |
| 2026-05-08 14:44 | 12.70998 | -27.33465 | 40997 ft | 480 kts | 27° |
| 2026-05-08 14:44 | 12.76790 | -27.30049 | 41006 ft | 480 kts | 27° |
| 2026-05-08 14:45 | 12.82580 | -27.26634 | 41008 ft | 480 kts | 27° |
| 2026-05-08 14:45 | 12.88361 | -27.23223 | 41002 ft | 480 kts | 27° |
| 2026-05-08 14:46 | 12.94151 | -27.19804 | 41011 ft | 480 kts | 27° |
| 2026-05-08 14:46 | 12.99931 | -27.16389 | 41013 ft | 479 kts | 27° |
| 2026-05-08 14:47 | 13.05674 | -27.12994 | 41004 ft | 479 kts | 27° |
| 2026-05-08 14:47 | 13.11446 | -27.09580 | 41006 ft | 479 kts | 27° |
| 2026-05-08 14:48 | 13.17209 | -27.06170 | 41006 ft | 478 kts | 27° |
| 2026-05-08 14:48 | 13.22973 | -27.02757 | 41007 ft | 478 kts | 27° |
| 2026-05-08 14:49 | 13.28734 | -26.99345 | 41004 ft | 478 kts | 27° |
| 2026-05-08 14:49 | 13.34489 | -26.95933 | 41006 ft | 477 kts | 27° |
| 2026-05-08 14:50 | 13.40240 | -26.92523 | 41010 ft | 477 kts | 27° |
| 2026-05-08 14:50 | 13.45954 | -26.89132 | 41010 ft | 477 kts | 27° |
| 2026-05-08 14:51 | 13.51696 | -26.85724 | 41007 ft | 476 kts | 27° |
| 2026-05-08 14:51 | 13.57430 | -26.82317 | 41010 ft | 476 kts | 27° |
| 2026-05-08 14:52 | 13.66021 | -26.77210 | 41012 ft | 475 kts | 27° |
| 2026-05-08 14:53 | 13.71743 | -26.73805 | 41009 ft | 475 kts | 27° |
| 2026-05-08 14:53 | 13.77455 | -26.70406 | 41010 ft | 474 kts | 27° |
| 2026-05-08 14:54 | 13.83173 | -26.67000 | 41005 ft | 474 kts | 27° |
| 2026-05-08 14:54 | 13.88880 | -26.63599 | 41009 ft | 473 kts | 28° |
| 2026-05-08 14:55 | 13.94546 | -26.60221 | 41009 ft | 473 kts | 28° |
| 2026-05-08 14:55 | 14.00239 | -26.56824 | 41010 ft | 473 kts | 28° |
| 2026-05-08 14:56 | 14.05925 | -26.53429 | 41008 ft | 472 kts | 28° |
| 2026-05-08 14:56 | 14.11615 | -26.50031 | 41010 ft | 472 kts | 28° |
| 2026-05-08 14:57 | 14.17294 | -26.46637 | 41009 ft | 472 kts | 28° |
| 2026-05-08 14:57 | 14.22969 | -26.43244 | 41009 ft | 471 kts | 28° |
| 2026-05-08 14:58 | 14.28649 | -26.39846 | 41008 ft | 471 kts | 28° |
| 2026-05-08 14:58 | 14.34283 | -26.36474 | 41008 ft | 471 kts | 28° |
| 2026-05-08 14:59 | 14.39953 | -26.33075 | 41010 ft | 471 kts | 28° |
| 2026-05-08 14:59 | 14.48455 | -26.27972 | 41010 ft | 471 kts | 28° |
| 2026-05-08 15:00 | 14.54130 | -26.24568 | 41014 ft | 471 kts | 28° |
| 2026-05-08 15:00 | 14.59797 | -26.21166 | 41013 ft | 471 kts | 28° |
| 2026-05-08 15:01 | 14.65462 | -26.17762 | 41011 ft | 471 kts | 28° |
| 2026-05-08 15:01 | 14.71098 | -26.14373 | 41015 ft | 471 kts | 28° |
| 2026-05-08 15:02 | 14.76761 | -26.10967 | 41014 ft | 471 kts | 28° |
| 2026-05-08 15:02 | 14.82421 | -26.07560 | 41016 ft | 471 kts | 28° |
| 2026-05-08 15:03 | 14.88079 | -26.04152 | 41015 ft | 471 kts | 28° |
| 2026-05-08 15:03 | 14.93734 | -26.00743 | 41017 ft | 470 kts | 28° |
| 2026-05-08 15:04 | 14.99395 | -25.97330 | 41015 ft | 470 kts | 28° |
| 2026-05-08 15:04 | 15.05058 | -25.93912 | 41014 ft | 470 kts | 28° |
| 2026-05-08 15:05 | 15.10715 | -25.90496 | 41015 ft | 470 kts | 28° |
| 2026-05-08 15:05 | 15.16327 | -25.87106 | 41014 ft | 470 kts | 28° |
| 2026-05-08 15:06 | 15.21981 | -25.83687 | 41003 ft | 470 kts | 28° |
| 2026-05-08 15:06 | 15.27625 | -25.80273 | 41003 ft | 470 kts | 28° |
| 2026-05-08 15:07 | 15.33261 | -25.76861 | 41023 ft | 469 kts | 28° |
| 2026-05-08 15:07 | 15.38903 | -25.73444 | 41030 ft | 469 kts | 28° |
| 2026-05-08 15:08 | 15.43591 | -25.70602 | 41030 ft | 469 kts | 28° |
| 2026-05-08 15:08 | 15.50180 | -25.66607 | 41007 ft | 470 kts | 28° |
| 2026-05-08 15:09 | 15.55819 | -25.63184 | 41026 ft | 469 kts | 28° |
| 2026-05-08 15:09 | 15.60514 | -25.60333 | 41016 ft | 470 kts | 28° |
| 2026-05-08 15:10 | 15.66154 | -25.56906 | 41033 ft | 469 kts | 28° |
| 2026-05-08 15:10 | 15.71801 | -25.53474 | 41012 ft | 470 kts | 28° |
| 2026-05-08 15:11 | 15.77440 | -25.50043 | 41013 ft | 470 kts | 28° |
| 2026-05-08 15:11 | 15.83076 | -25.46612 | 41020 ft | 470 kts | 28° |
| 2026-05-08 15:12 | 15.88681 | -25.43198 | 41023 ft | 470 kts | 28° |
| 2026-05-08 15:12 | 15.94322 | -25.39759 | 41023 ft | 470 kts | 28° |
| 2026-05-08 15:13 | 15.99965 | -25.36317 | 41023 ft | 470 kts | 28° |
| 2026-05-08 15:13 | 16.05613 | -25.32869 | 41029 ft | 470 kts | 28° |
| 2026-05-08 15:14 | 16.07340 | -25.31815 | 41024 ft | 470 kts | 28° |
| 2026-05-08 15:14 | 16.12930 | -25.28400 | 41024 ft | 470 kts | 28° |
| 2026-05-08 15:15 | 16.18573 | -25.24950 | 41027 ft | 470 kts | 28° |
| 2026-05-08 15:15 | 16.24224 | -25.21493 | 41026 ft | 471 kts | 28° |
| 2026-05-08 15:16 | 16.29871 | -25.18036 | 41026 ft | 471 kts | 28° |
| 2026-05-08 15:16 | 16.35516 | -25.14579 | 41023 ft | 471 kts | 28° |
| 2026-05-08 15:17 | 16.41126 | -25.11139 | 41024 ft | 471 kts | 28° |
| 2026-05-08 15:17 | 16.46768 | -25.07678 | 41025 ft | 471 kts | 28° |
| 2026-05-08 15:18 | 16.52413 | -25.04213 | 41020 ft | 471 kts | 28° |
| 2026-05-08 15:18 | 16.58059 | -25.00745 | 41009 ft | 471 kts | 28° |
| 2026-05-08 15:19 | 16.63709 | -24.97272 | 41008 ft | 471 kts | 28° |
| 2026-05-08 15:19 | 16.69358 | -24.93797 | 41008 ft | 471 kts | 28° |
| 2026-05-08 15:20 | 16.74971 | -24.90343 | 41001 ft | 471 kts | 28° |
| 2026-05-08 15:20 | 16.80614 | -24.86867 | 41004 ft | 471 kts | 28° |
| 2026-05-08 15:21 | 16.86262 | -24.83385 | 41014 ft | 471 kts | 28° |
| 2026-05-08 15:21 | 16.91905 | -24.79905 | 41017 ft | 471 kts | 28° |
| 2026-05-08 15:22 | 16.97559 | -24.76415 | 41028 ft | 471 kts | 28° |
| 2026-05-08 15:22 | 17.03169 | -24.72950 | 41037 ft | 471 kts | 28° |
| 2026-05-08 15:23 | 17.08817 | -24.69459 | 41038 ft | 471 kts | 28° |
| 2026-05-08 15:23 | 17.14464 | -24.65966 | 41041 ft | 471 kts | 28° |
| 2026-05-08 15:24 | 17.20108 | -24.62473 | 41041 ft | 471 kts | 28° |
| 2026-05-08 15:24 | 17.25747 | -24.58980 | 41043 ft | 471 kts | 28° |
| 2026-05-08 15:25 | 17.31385 | -24.55485 | 41041 ft | 471 kts | 28° |
| 2026-05-08 15:25 | 17.36998 | -24.52003 | 41042 ft | 471 kts | 28° |
| 2026-05-08 15:26 | 17.42642 | -24.48500 | 41041 ft | 471 kts | 28° |
| 2026-05-08 15:26 | 17.48284 | -24.44995 | 41041 ft | 471 kts | 28° |
| 2026-05-08 15:27 | 17.53925 | -24.41488 | 41041 ft | 471 kts | 28° |
| 2026-05-08 15:27 | 17.59555 | -24.37986 | 41040 ft | 471 kts | 27° |
| 2026-05-08 15:28 | 17.65191 | -24.34478 | 41043 ft | 471 kts | 27° |
| 2026-05-08 15:28 | 17.70831 | -24.30965 | 41052 ft | 471 kts | 27° |
| 2026-05-08 15:29 | 17.76428 | -24.27474 | 41044 ft | 471 kts | 27° |
| 2026-05-08 15:29 | 17.82060 | -24.23958 | 41045 ft | 471 kts | 27° |
| 2026-05-08 15:30 | 17.87700 | -24.20438 | 41044 ft | 471 kts | 27° |
| 2026-05-08 15:30 | 17.93332 | -24.16920 | 41047 ft | 471 kts | 27° |
| 2026-05-08 15:31 | 17.98962 | -24.13402 | 41047 ft | 471 kts | 27° |
| 2026-05-08 15:31 | 18.04597 | -24.09876 | 41048 ft | 471 kts | 27° |
| 2026-05-08 15:32 | 18.10225 | -24.06352 | 41046 ft | 471 kts | 27° |
| 2026-05-08 15:32 | 18.15821 | -24.02845 | 41051 ft | 471 kts | 27° |
| 2026-05-08 15:33 | 18.21449 | -23.99316 | 41051 ft | 471 kts | 27° |
| 2026-05-08 15:33 | 18.27074 | -23.95785 | 41053 ft | 471 kts | 27° |
| 2026-05-08 15:34 | 18.32705 | -23.92249 | 41048 ft | 471 kts | 27° |
| 2026-05-08 15:34 | 18.38329 | -23.88715 | 41045 ft | 471 kts | 27° |
| 2026-05-08 15:35 | 18.43948 | -23.85180 | 41048 ft | 471 kts | 27° |
| 2026-05-08 15:35 | 18.49570 | -23.81641 | 41054 ft | 471 kts | 27° |
| 2026-05-08 15:36 | 18.54244 | -23.78696 | 41053 ft | 471 kts | 27° |
| 2026-05-08 15:36 | 18.60787 | -23.74572 | 41053 ft | 471 kts | 27° |
| 2026-05-08 15:37 | 18.66412 | -23.71023 | 41053 ft | 471 kts | 27° |
| 2026-05-08 15:37 | 18.72041 | -23.67468 | 41053 ft | 471 kts | 27° |
| 2026-05-08 15:38 | 18.77657 | -23.63919 | 41053 ft | 470 kts | 27° |
| 2026-05-08 15:38 | 18.83282 | -23.60361 | 41046 ft | 470 kts | 27° |
| 2026-05-08 15:39 | 18.88866 | -23.56827 | 41053 ft | 471 kts | 27° |
| 2026-05-08 15:39 | 18.94482 | -23.53270 | 41042 ft | 471 kts | 27° |
| 2026-05-08 15:40 | 19.00096 | -23.49711 | 41039 ft | 471 kts | 27° |
| 2026-05-08 15:40 | 19.05716 | -23.46145 | 41068 ft | 471 kts | 27° |
| 2026-05-08 15:41 | 19.11337 | -23.42575 | 41064 ft | 471 kts | 27° |
| 2026-05-08 15:41 | 19.16952 | -23.39007 | 41048 ft | 471 kts | 27° |
| 2026-05-08 15:42 | 19.22568 | -23.35436 | 41052 ft | 471 kts | 27° |
| 2026-05-08 15:42 | 19.28144 | -23.31887 | 41058 ft | 471 kts | 27° |
| 2026-05-08 15:43 | 19.33763 | -23.28307 | 41058 ft | 471 kts | 27° |
| 2026-05-08 15:43 | 19.39377 | -23.24728 | 41057 ft | 471 kts | 27° |
| 2026-05-08 15:44 | 19.44996 | -23.21143 | 41058 ft | 471 kts | 27° |
| 2026-05-08 15:44 | 19.50611 | -23.17558 | 41060 ft | 471 kts | 27° |
| 2026-05-08 15:45 | 19.56198 | -23.13987 | 41060 ft | 471 kts | 27° |
| 2026-05-08 15:45 | 19.61811 | -23.10397 | 41060 ft | 471 kts | 27° |
| 2026-05-08 15:46 | 19.67430 | -23.06800 | 41062 ft | 471 kts | 27° |
| 2026-05-08 15:46 | 19.73043 | -23.03203 | 41064 ft | 471 kts | 27° |
| 2026-05-08 15:47 | 19.78661 | -22.99601 | 41062 ft | 471 kts | 27° |
| 2026-05-08 15:47 | 19.84273 | -22.96000 | 41059 ft | 471 kts | 27° |
| 2026-05-08 15:48 | 19.92653 | -22.90617 | 41060 ft | 471 kts | 27° |
| 2026-05-08 15:49 | 19.98265 | -22.87007 | 41061 ft | 471 kts | 27° |
| 2026-05-08 15:49 | 20.03871 | -22.83399 | 41058 ft | 471 kts | 27° |
| 2026-05-08 15:50 | 20.09490 | -22.79780 | 41060 ft | 472 kts | 27° |
| 2026-05-08 15:50 | 20.15104 | -22.76160 | 41062 ft | 472 kts | 27° |
| 2026-05-08 15:51 | 20.20724 | -22.72534 | 41062 ft | 472 kts | 27° |
| 2026-05-08 15:51 | 20.26334 | -22.68911 | 41062 ft | 472 kts | 27° |
| 2026-05-08 15:52 | 20.31964 | -22.65272 | 41064 ft | 472 kts | 27° |
| 2026-05-08 15:52 | 20.37543 | -22.61663 | 41071 ft | 472 kts | 27° |
| 2026-05-08 15:53 | 20.43169 | -22.58020 | 41058 ft | 473 kts | 27° |
| 2026-05-08 15:53 | 20.48796 | -22.54373 | 41057 ft | 473 kts | 26° |
| 2026-05-08 15:54 | 20.54420 | -22.50726 | 41060 ft | 473 kts | 26° |
| 2026-05-08 15:54 | 20.60049 | -22.47071 | 41064 ft | 473 kts | 26° |
| 2026-05-08 15:55 | 20.65637 | -22.43440 | 41062 ft | 473 kts | 26° |
| 2026-05-08 15:55 | 20.74084 | -22.37946 | 41060 ft | 474 kts | 26° |
| 2026-05-08 15:56 | 20.79717 | -22.34278 | 41061 ft | 474 kts | 26° |
| 2026-05-08 15:56 | 20.85353 | -22.30605 | 41060 ft | 474 kts | 26° |
| 2026-05-08 15:57 | 20.90994 | -22.26925 | 41061 ft | 475 kts | 26° |
| 2026-05-08 15:57 | 20.96634 | -22.23243 | 41063 ft | 475 kts | 26° |
| 2026-05-08 15:58 | 21.01325 | -22.20177 | 41063 ft | 475 kts | 26° |
| 2026-05-08 15:58 | 21.07883 | -22.15888 | 41064 ft | 475 kts | 26° |
| 2026-05-08 15:59 | 21.12615 | -22.12791 | 41061 ft | 476 kts | 26° |
| 2026-05-08 15:59 | 21.18224 | -22.09116 | 41065 ft | 476 kts | 26° |
| 2026-05-08 16:00 | 21.23873 | -22.05412 | 41065 ft | 476 kts | 26° |
| 2026-05-08 16:00 | 21.29524 | -22.01704 | 41068 ft | 476 kts | 26° |
| 2026-05-08 16:01 | 21.35176 | -21.97993 | 41062 ft | 476 kts | 26° |
| 2026-05-08 16:01 | 21.40824 | -21.94278 | 41070 ft | 477 kts | 26° |
| 2026-05-08 16:02 | 21.46479 | -21.90554 | 41076 ft | 477 kts | 26° |
| 2026-05-08 16:02 | 21.52143 | -21.86823 | 41067 ft | 477 kts | 26° |
| 2026-05-08 16:03 | 21.57799 | -21.83093 | 41067 ft | 477 kts | 26° |
| 2026-05-08 16:03 | 21.63428 | -21.79378 | 41069 ft | 477 kts | 26° |
| 2026-05-08 16:04 | 21.69087 | -21.75640 | 41073 ft | 478 kts | 26° |
| 2026-05-08 16:04 | 21.74750 | -21.71895 | 41067 ft | 478 kts | 26° |
| 2026-05-08 16:05 | 21.80419 | -21.68144 | 41073 ft | 478 kts | 26° |
| 2026-05-08 16:05 | 21.86091 | -21.64387 | 41072 ft | 478 kts | 26° |
| 2026-05-08 16:06 | 21.91757 | -21.60629 | 41074 ft | 478 kts | 26° |
| 2026-05-08 16:06 | 21.97424 | -21.56868 | 41071 ft | 478 kts | 26° |
| 2026-05-08 16:07 | 22.03092 | -21.53103 | 41074 ft | 479 kts | 26° |
| 2026-05-08 16:07 | 22.08730 | -21.49354 | 41072 ft | 479 kts | 26° |
| 2026-05-08 16:08 | 22.14404 | -21.45577 | 41062 ft | 479 kts | 26° |
| 2026-05-08 16:08 | 22.20073 | -21.41800 | 41081 ft | 479 kts | 26° |
| 2026-05-08 16:09 | 22.25750 | -21.38015 | 41078 ft | 479 kts | 26° |
| 2026-05-08 16:09 | 22.31417 | -21.34232 | 41070 ft | 479 kts | 26° |
| 2026-05-08 16:10 | 22.37091 | -21.30440 | 41072 ft | 480 kts | 26° |
| 2026-05-08 16:10 | 22.42776 | -21.26638 | 41070 ft | 480 kts | 26° |
| 2026-05-08 16:11 | 22.48451 | -21.22839 | 41074 ft | 480 kts | 26° |
| 2026-05-08 16:11 | 22.54103 | -21.19052 | 41078 ft | 481 kts | 26° |
| 2026-05-08 16:12 | 22.59787 | -21.15239 | 41075 ft | 481 kts | 26° |
| 2026-05-08 16:12 | 22.65482 | -21.11418 | 41074 ft | 481 kts | 25° |
| 2026-05-08 16:13 | 22.71177 | -21.07637 | 41071 ft | 481 kts | 25° |
| 2026-05-08 16:13 | 22.76871 | -21.03822 | 41068 ft | 481 kts | 26° |
| 2026-05-08 16:14 | 22.82561 | -20.99985 | 41068 ft | 481 kts | 26° |
| 2026-05-08 16:14 | 22.88215 | -20.96166 | 41065 ft | 482 kts | 26° |
| 2026-05-08 16:15 | 22.93904 | -20.92320 | 41077 ft | 482 kts | 26° |
| 2026-05-08 16:15 | 22.99597 | -20.88470 | 41073 ft | 482 kts | 26° |
| 2026-05-08 16:16 | 23.05300 | -20.84610 | 41071 ft | 483 kts | 26° |
| 2026-05-08 16:16 | 23.10999 | -20.80748 | 41055 ft | 483 kts | 26° |
| 2026-05-08 16:17 | 23.15739 | -20.77532 | 41065 ft | 483 kts | 26° |
| 2026-05-08 16:17 | 23.22380 | -20.73025 | 41073 ft | 483 kts | 26° |
| 2026-05-08 16:18 | 23.28088 | -20.69147 | 41075 ft | 484 kts | 26° |
| 2026-05-08 16:18 | 23.33795 | -20.65266 | 41071 ft | 484 kts | 26° |
| 2026-05-08 16:19 | 23.39514 | -20.61366 | 41074 ft | 485 kts | 26° |
| 2026-05-08 16:19 | 23.45233 | -20.57467 | 41074 ft | 485 kts | 26° |
| 2026-05-08 16:20 | 23.50957 | -20.53565 | 41077 ft | 485 kts | 26° |
| 2026-05-08 16:20 | 23.56686 | -20.49655 | 41072 ft | 486 kts | 26° |
| 2026-05-08 16:21 | 23.62416 | -20.45740 | 41073 ft | 486 kts | 26° |
| 2026-05-08 16:21 | 23.68108 | -20.41847 | 41072 ft | 486 kts | 26° |
| 2026-05-08 16:22 | 23.73848 | -20.37918 | 41073 ft | 487 kts | 26° |
| 2026-05-08 16:22 | 23.79577 | -20.33991 | 41074 ft | 487 kts | 26° |
| 2026-05-08 16:23 | 23.85315 | -20.30055 | 41074 ft | 487 kts | 26° |
| 2026-05-08 16:23 | 23.91057 | -20.26111 | 41072 ft | 487 kts | 26° |
| 2026-05-08 16:24 | 23.96800 | -20.22163 | 41073 ft | 488 kts | 26° |
| 2026-05-08 16:24 | 24.02543 | -20.18210 | 41068 ft | 487 kts | 26° |
| 2026-05-08 16:25 | 24.08279 | -20.14258 | 41070 ft | 488 kts | 26° |
| 2026-05-08 16:25 | 24.14021 | -20.10298 | 41069 ft | 488 kts | 26° |
| 2026-05-08 16:26 | 24.19737 | -20.06351 | 41072 ft | 489 kts | 26° |
| 2026-05-08 16:26 | 24.25488 | -20.02376 | 41067 ft | 489 kts | 26° |
| 2026-05-08 16:27 | 24.31248 | -19.98390 | 41069 ft | 489 kts | 26° |
| 2026-05-08 16:27 | 24.37008 | -19.94400 | 41066 ft | 490 kts | 26° |
| 2026-05-08 16:28 | 24.42769 | -19.90405 | 41073 ft | 490 kts | 26° |
| 2026-05-08 16:28 | 24.48537 | -19.86400 | 41061 ft | 490 kts | 26° |
| 2026-05-08 16:29 | 24.54271 | -19.82414 | 41058 ft | 491 kts | 26° |
| 2026-05-08 16:29 | 24.60039 | -19.78400 | 41067 ft | 491 kts | 26° |
| 2026-05-08 16:30 | 24.65809 | -19.74381 | 41066 ft | 491 kts | 26° |
| 2026-05-08 16:30 | 24.71587 | -19.70351 | 41067 ft | 491 kts | 26° |
| 2026-05-08 16:31 | 24.77363 | -19.66319 | 41065 ft | 492 kts | 26° |
| 2026-05-08 16:31 | 24.83143 | -19.62280 | 41062 ft | 492 kts | 26° |
| 2026-05-08 16:32 | 24.88923 | -19.58235 | 41065 ft | 492 kts | 26° |
| 2026-05-08 16:32 | 24.94676 | -19.54206 | 41063 ft | 493 kts | 26° |
| 2026-05-08 16:33 | 25.00463 | -19.50149 | 41059 ft | 493 kts | 26° |
| 2026-05-08 16:33 | 25.06257 | -19.46080 | 41062 ft | 493 kts | 26° |
| 2026-05-08 16:34 | 25.12054 | -19.42004 | 41064 ft | 494 kts | 26° |
| 2026-05-08 16:34 | 25.17847 | -19.37927 | 41065 ft | 494 kts | 26° |
| 2026-05-08 16:35 | 25.23645 | -19.33843 | 41066 ft | 494 kts | 26° |
| 2026-05-08 16:35 | 25.29404 | -19.29781 | 41061 ft | 494 kts | 26° |
| 2026-05-08 16:36 | 25.35205 | -19.25685 | 41065 ft | 495 kts | 26° |
| 2026-05-08 16:36 | 25.41007 | -19.21584 | 41049 ft | 495 kts | 26° |
| 2026-05-08 16:37 | 25.46816 | -19.17472 | 41053 ft | 495 kts | 26° |
| 2026-05-08 16:37 | 25.52626 | -19.13355 | 41062 ft | 495 kts | 26° |
| 2026-05-08 16:38 | 25.58432 | -19.09237 | 41062 ft | 496 kts | 26° |
| 2026-05-08 16:38 | 25.64203 | -19.05139 | 41058 ft | 496 kts | 26° |
| 2026-05-08 16:39 | 25.70018 | -19.01004 | 41059 ft | 496 kts | 26° |
| 2026-05-08 16:39 | 25.75832 | -18.96865 | 41059 ft | 497 kts | 26° |
| 2026-05-08 16:40 | 25.81652 | -18.92716 | 41058 ft | 497 kts | 26° |
| 2026-05-08 16:40 | 25.87477 | -18.88560 | 41052 ft | 497 kts | 26° |
| 2026-05-08 16:41 | 25.93304 | -18.84397 | 41052 ft | 498 kts | 26° |
| 2026-05-08 16:42 | 26.02007 | -18.78169 | 41052 ft | 498 kts | 26° |
| 2026-05-08 16:42 | 26.07846 | -18.73983 | 41051 ft | 498 kts | 26° |
| 2026-05-08 16:43 | 26.13649 | -18.69821 | 41049 ft | 499 kts | 26° |
| 2026-05-08 16:43 | 26.19481 | -18.65632 | 41050 ft | 499 kts | 26° |
| 2026-05-08 16:44 | 26.25313 | -18.61437 | 41052 ft | 499 kts | 26° |
| 2026-05-08 16:44 | 26.31148 | -18.57236 | 41049 ft | 499 kts | 26° |
| 2026-05-08 16:45 | 26.36996 | -18.53019 | 41047 ft | 500 kts | 26° |
| 2026-05-08 16:45 | 26.42844 | -18.48798 | 41049 ft | 500 kts | 26° |
| 2026-05-08 16:46 | 26.48647 | -18.44603 | 41045 ft | 500 kts | 26° |
| 2026-05-08 16:46 | 26.54497 | -18.40370 | 41040 ft | 501 kts | 26° |
| 2026-05-08 16:47 | 26.60335 | -18.36140 | 41057 ft | 500 kts | 26° |
| 2026-05-08 16:47 | 26.66179 | -18.31901 | 41036 ft | 501 kts | 26° |
| 2026-05-08 16:48 | 26.72038 | -18.27645 | 41036 ft | 501 kts | 26° |
| 2026-05-08 16:48 | 26.77886 | -18.23392 | 41039 ft | 501 kts | 27° |
| 2026-05-08 16:49 | 26.82749 | -18.19852 | 41038 ft | 502 kts | 27° |
| 2026-05-08 16:49 | 26.88601 | -18.15586 | 41037 ft | 502 kts | 27° |
| 2026-05-08 16:50 | 26.95410 | -18.10617 | 41034 ft | 502 kts | 27° |
| 2026-05-08 16:50 | 27.00283 | -18.07055 | 41029 ft | 502 kts | 27° |
| 2026-05-08 16:51 | 27.06139 | -18.02771 | 41030 ft | 502 kts | 27° |
| 2026-05-08 16:51 | 27.12003 | -17.98475 | 41031 ft | 503 kts | 27° |
| 2026-05-08 16:52 | 27.17875 | -17.94167 | 41020 ft | 503 kts | 27° |
| 2026-05-08 16:52 | 27.23740 | -17.89860 | 41026 ft | 504 kts | 27° |
| 2026-05-08 16:53 | 27.32540 | -17.83386 | 41037 ft | 504 kts | 27° |
| 2026-05-08 16:53 | 27.38410 | -17.79061 | 41021 ft | 504 kts | 27° |
| 2026-05-08 16:54 | 27.44244 | -17.74757 | 41021 ft | 505 kts | 27° |
| 2026-05-08 16:54 | 27.50117 | -17.70419 | 41024 ft | 505 kts | 27° |
| 2026-05-08 16:55 | 27.56002 | -17.66066 | 41023 ft | 505 kts | 27° |
| 2026-05-08 16:55 | 27.61879 | -17.61714 | 41024 ft | 506 kts | 27° |
| 2026-05-08 16:56 | 27.67741 | -17.57367 | 41025 ft | 506 kts | 27° |
| 2026-05-08 16:56 | 27.73603 | -17.53014 | 41023 ft | 506 kts | 27° |
| 2026-05-08 16:57 | 27.79492 | -17.48635 | 41027 ft | 507 kts | 27° |
| 2026-05-08 16:57 | 27.85391 | -17.44242 | 41023 ft | 507 kts | 27° |
| 2026-05-08 16:58 | 27.91286 | -17.39848 | 41023 ft | 508 kts | 27° |
| 2026-05-08 16:58 | 27.97188 | -17.35443 | 41023 ft | 508 kts | 27° |
| 2026-05-08 16:59 | 28.03234 | -17.31395 | 41022 ft | 502 kts | 20° |
| 2026-05-08 16:59 | 28.09432 | -17.27737 | 41019 ft | 503 kts | 21° |
| 2026-05-08 17:00 | 28.15600 | -17.24067 | 41028 ft | 504 kts | 20° |
| 2026-05-08 17:00 | 28.21810 | -17.20372 | 41020 ft | 504 kts | 21° |
| 2026-05-08 17:01 | 28.28002 | -17.16678 | 41015 ft | 504 kts | 21° |
| 2026-05-08 17:01 | 28.34213 | -17.12967 | 41013 ft | 504 kts | 20° |
| 2026-05-08 17:02 | 28.40422 | -17.09256 | 41017 ft | 504 kts | 20° |
| 2026-05-08 17:02 | 28.46640 | -17.05533 | 41007 ft | 504 kts | 20° |
| 2026-05-08 17:03 | 28.52850 | -17.01810 | 41008 ft | 505 kts | 20° |
| 2026-05-08 17:03 | 28.59064 | -16.98080 | 41023 ft | 505 kts | 20° |
| 2026-05-08 17:04 | 28.65281 | -16.94342 | 41005 ft | 505 kts | 20° |
| 2026-05-08 17:04 | 28.71462 | -16.90621 | 41016 ft | 506 kts | 20° |
| 2026-05-08 17:05 | 28.77682 | -16.86872 | 41013 ft | 506 kts | 20° |
| 2026-05-08 17:05 | 28.83915 | -16.83110 | 41011 ft | 506 kts | 20° |
| 2026-05-08 17:06 | 28.90144 | -16.79345 | 41005 ft | 507 kts | 20° |
| 2026-05-08 17:06 | 28.96383 | -16.75568 | 41000 ft | 507 kts | 20° |
| 2026-05-08 17:07 | 29.02619 | -16.71789 | 40999 ft | 507 kts | 20° |
| 2026-05-08 17:07 | 29.08860 | -16.68001 | 40997 ft | 507 kts | 20° |
| 2026-05-08 17:08 | 29.15105 | -16.64205 | 41000 ft | 508 kts | 20° |
| 2026-05-08 17:08 | 29.21303 | -16.60433 | 41000 ft | 508 kts | 20° |
| 2026-05-08 17:09 | 29.27537 | -16.56634 | 40980 ft | 508 kts | 20° |
| 2026-05-08 17:09 | 29.33773 | -16.52828 | 40992 ft | 508 kts | 20° |
| 2026-05-08 17:10 | 29.40026 | -16.49006 | 40991 ft | 508 kts | 20° |
| 2026-05-08 17:10 | 29.46269 | -16.45186 | 40984 ft | 508 kts | 19° |
| 2026-05-08 17:11 | 29.52512 | -16.41360 | 40988 ft | 509 kts | 19° |
| 2026-05-08 17:11 | 29.58722 | -16.37549 | 40985 ft | 509 kts | 19° |
| 2026-05-08 17:12 | 29.64969 | -16.33710 | 40983 ft | 509 kts | 19° |
| 2026-05-08 17:12 | 29.71226 | -16.29858 | 40979 ft | 510 kts | 19° |
| 2026-05-08 17:13 | 29.77481 | -16.26002 | 40975 ft | 510 kts | 19° |
| 2026-05-08 17:13 | 29.83734 | -16.22143 | 40974 ft | 510 kts | 19° |
| 2026-05-08 17:14 | 29.89996 | -16.18272 | 40971 ft | 511 kts | 19° |
| 2026-05-08 17:14 | 29.96265 | -16.14390 | 40972 ft | 511 kts | 19° |
| 2026-05-08 17:15 | 30.02535 | -16.10503 | 40966 ft | 512 kts | 19° |
| 2026-05-08 17:15 | 30.08809 | -16.06610 | 40966 ft | 512 kts | 19° |
| 2026-05-08 17:16 | 30.15087 | -16.02707 | 40967 ft | 513 kts | 19° |
| 2026-05-08 17:16 | 30.21370 | -15.98795 | 40963 ft | 513 kts | 19° |
| 2026-05-08 17:17 | 30.27624 | -15.94894 | 40945 ft | 514 kts | 19° |
| 2026-05-08 17:17 | 30.33919 | -15.90963 | 40944 ft | 514 kts | 19° |
| 2026-05-08 17:18 | 30.40222 | -15.87021 | 40950 ft | 515 kts | 19° |
| 2026-05-08 17:18 | 30.46532 | -15.83069 | 40957 ft | 515 kts | 19° |
| 2026-05-08 17:19 | 30.52836 | -15.79114 | 40954 ft | 516 kts | 19° |
| 2026-05-08 17:19 | 30.59151 | -15.75147 | 40950 ft | 516 kts | 19° |
| 2026-05-08 17:20 | 30.65478 | -15.71167 | 40945 ft | 517 kts | 19° |
| 2026-05-08 17:20 | 30.71802 | -15.67182 | 40942 ft | 517 kts | 19° |
| 2026-05-08 17:21 | 30.78084 | -15.63218 | 40945 ft | 517 kts | 19° |
| 2026-05-08 17:21 | 30.84410 | -15.59220 | 40943 ft | 517 kts | 19° |
| 2026-05-08 17:22 | 30.90739 | -15.55214 | 40940 ft | 518 kts | 20° |
| 2026-05-08 17:22 | 30.97077 | -15.51196 | 40933 ft | 518 kts | 20° |
| 2026-05-08 17:23 | 31.03410 | -15.47175 | 40935 ft | 518 kts | 20° |
| 2026-05-08 17:23 | 31.09755 | -15.43141 | 40933 ft | 519 kts | 20° |
| 2026-05-08 17:24 | 31.16092 | -15.39106 | 40930 ft | 519 kts | 20° |
| 2026-05-08 17:24 | 31.22432 | -15.35063 | 40926 ft | 519 kts | 20° |
| 2026-05-08 17:25 | 31.28777 | -15.31010 | 40921 ft | 520 kts | 20° |
| 2026-05-08 17:25 | 31.34886 | -15.26452 | 40917 ft | 526 kts | 26° |
| 2026-05-08 17:26 | 31.40978 | -15.21727 | 40915 ft | 526 kts | 26° |
| 2026-05-08 17:26 | 31.47090 | -15.16992 | 40919 ft | 526 kts | 26° |
| 2026-05-08 17:27 | 31.53201 | -15.12244 | 40916 ft | 527 kts | 26° |
| 2026-05-08 17:27 | 31.59308 | -15.07489 | 40910 ft | 527 kts | 26° |
| 2026-05-08 17:28 | 31.65420 | -15.02722 | 40910 ft | 527 kts | 26° |
| 2026-05-08 17:28 | 31.71525 | -14.97953 | 40911 ft | 527 kts | 27° |
| 2026-05-08 17:29 | 31.77631 | -14.93176 | 40907 ft | 527 kts | 27° |
| 2026-05-08 17:29 | 31.83752 | -14.88379 | 40899 ft | 529 kts | 27° |
| 2026-05-08 17:30 | 31.89872 | -14.83575 | 40880 ft | 529 kts | 27° |
| 2026-05-08 17:30 | 31.95945 | -14.78799 | 40883 ft | 528 kts | 27° |
| 2026-05-08 17:31 | 32.02061 | -14.73983 | 40889 ft | 528 kts | 27° |
| 2026-05-08 17:31 | 32.08170 | -14.69164 | 40885 ft | 528 kts | 27° |
| 2026-05-08 17:32 | 32.14271 | -14.64343 | 40879 ft | 528 kts | 27° |
| 2026-05-08 17:32 | 32.20383 | -14.59506 | 40883 ft | 529 kts | 28° |
| 2026-05-08 17:33 | 32.26499 | -14.54658 | 40875 ft | 529 kts | 28° |
| 2026-05-08 17:33 | 32.32565 | -14.49840 | 40875 ft | 529 kts | 28° |
| 2026-05-08 17:34 | 32.38679 | -14.44978 | 40874 ft | 529 kts | 28° |
| 2026-05-08 17:34 | 32.44780 | -14.40117 | 40869 ft | 528 kts | 28° |
| 2026-05-08 17:35 | 32.50877 | -14.35252 | 40872 ft | 528 kts | 28° |
| 2026-05-08 17:35 | 32.56977 | -14.30376 | 40869 ft | 528 kts | 28° |
| 2026-05-08 17:36 | 32.63031 | -14.25529 | 40865 ft | 528 kts | 28° |
| 2026-05-08 17:36 | 32.69121 | -14.20644 | 40862 ft | 528 kts | 29° |
| 2026-05-08 17:37 | 32.75204 | -14.15757 | 40864 ft | 528 kts | 29° |
| 2026-05-08 17:37 | 32.81289 | -14.10860 | 40856 ft | 528 kts | 29° |
| 2026-05-08 17:38 | 32.86340 | -14.06790 | 40852 ft | 527 kts | 29° |
| 2026-05-08 17:38 | 32.92415 | -14.01886 | 40854 ft | 527 kts | 29° |
| 2026-05-08 17:39 | 32.98492 | -13.96972 | 40853 ft | 527 kts | 29° |
| 2026-05-08 17:39 | 33.04568 | -13.92052 | 40849 ft | 527 kts | 29° |
| 2026-05-08 17:40 | 33.10627 | -13.87136 | 40848 ft | 527 kts | 30° |
| 2026-05-08 17:40 | 33.16691 | -13.82209 | 40847 ft | 527 kts | 30° |
| 2026-05-08 17:41 | 33.22740 | -13.77247 | 40847 ft | 527 kts | 30° |
| 2026-05-08 17:41 | 33.28786 | -13.72279 | 40828 ft | 527 kts | 30° |
| 2026-05-08 17:42 | 33.34827 | -13.67309 | 40840 ft | 527 kts | 30° |
| 2026-05-08 17:42 | 33.40839 | -13.62358 | 40837 ft | 527 kts | 30° |
| 2026-05-08 17:43 | 33.46872 | -13.57379 | 40838 ft | 527 kts | 30° |
| 2026-05-08 17:43 | 33.52918 | -13.52382 | 40832 ft | 527 kts | 30° |
| 2026-05-08 17:44 | 33.58962 | -13.47377 | 40830 ft | 527 kts | 30° |
| 2026-05-08 17:44 | 33.65004 | -13.42366 | 40825 ft | 527 kts | 31° |
| 2026-05-08 17:45 | 33.71003 | -13.37381 | 40826 ft | 527 kts | 31° |
| 2026-05-08 17:45 | 33.77036 | -13.32360 | 40820 ft | 527 kts | 31° |
| 2026-05-08 17:46 | 33.83067 | -13.27332 | 40825 ft | 527 kts | 31° |
| 2026-05-08 17:46 | 33.89093 | -13.22298 | 40820 ft | 527 kts | 31° |
| 2026-05-08 17:47 | 33.95121 | -13.17254 | 40813 ft | 528 kts | 31° |
| 2026-05-08 17:47 | 34.00174 | -13.13020 | 40811 ft | 528 kts | 31° |
| 2026-05-08 17:48 | 34.07184 | -13.07135 | 40812 ft | 528 kts | 31° |
| 2026-05-08 17:48 | 34.13205 | -13.02070 | 40808 ft | 528 kts | 31° |
| 2026-05-08 17:49 | 34.19242 | -12.96984 | 40806 ft | 528 kts | 31° |
| 2026-05-08 17:49 | 34.25267 | -12.91898 | 40811 ft | 528 kts | 31° |
| 2026-05-08 17:50 | 34.31261 | -12.86858 | 40810 ft | 528 kts | 31° |
| 2026-05-08 17:50 | 34.37342 | -12.81771 | 40790 ft | 528 kts | 31° |
| 2026-05-08 17:51 | 34.43341 | -12.76742 | 40794 ft | 528 kts | 31° |
| 2026-05-08 17:51 | 34.49375 | -12.71667 | 40797 ft | 528 kts | 31° |
| 2026-05-08 17:52 | 34.55416 | -12.66577 | 40793 ft | 528 kts | 32° |
| 2026-05-08 17:53 | 34.64462 | -12.58937 | 40790 ft | 528 kts | 32° |
| 2026-05-08 17:53 | 34.70448 | -12.53871 | 40788 ft | 528 kts | 32° |
| 2026-05-08 17:54 | 34.76474 | -12.48761 | 40786 ft | 528 kts | 32° |
| 2026-05-08 17:54 | 34.82507 | -12.43637 | 40788 ft | 528 kts | 32° |
| 2026-05-08 17:55 | 34.88535 | -12.38507 | 40785 ft | 528 kts | 32° |
| 2026-05-08 17:55 | 34.94560 | -12.33370 | 40786 ft | 528 kts | 32° |
| 2026-05-08 17:56 | 35.00543 | -12.28259 | 40784 ft | 528 kts | 32° |
| 2026-05-08 17:56 | 35.06553 | -12.23116 | 40778 ft | 528 kts | 32° |
| 2026-05-08 17:57 | 35.12566 | -12.17962 | 40777 ft | 528 kts | 32° |
| 2026-05-08 17:57 | 35.18581 | -12.12796 | 40775 ft | 528 kts | 33° |
| 2026-05-08 17:58 | 35.24593 | -12.07624 | 40777 ft | 528 kts | 33° |
| 2026-05-08 17:58 | 35.30597 | -12.02448 | 40769 ft | 528 kts | 33° |
| 2026-05-08 17:59 | 35.36594 | -11.97269 | 40774 ft | 528 kts | 33° |
| 2026-05-08 17:59 | 35.42602 | -11.92071 | 40774 ft | 528 kts | 33° |
| 2026-05-08 18:00 | 35.48567 | -11.86900 | 40774 ft | 528 kts | 33° |
| 2026-05-08 18:00 | 35.57559 | -11.79087 | 40768 ft | 528 kts | 33° |
| 2026-05-08 18:01 | 35.63554 | -11.73866 | 40764 ft | 528 kts | 33° |
| 2026-05-08 18:01 | 35.69541 | -11.68642 | 40764 ft | 528 kts | 33° |
| 2026-05-08 18:02 | 35.74525 | -11.64286 | 40774 ft | 528 kts | 33° |
| 2026-05-08 18:02 | 35.81538 | -11.58142 | 40766 ft | 528 kts | 33° |
| 2026-05-08 18:03 | 35.87523 | -11.52889 | 40761 ft | 528 kts | 33° |
| 2026-05-08 18:03 | 35.93466 | -11.47664 | 40763 ft | 528 kts | 33° |
| 2026-05-08 18:04 | 35.99604 | -11.42726 | 40761 ft | 525 kts | 27° |
| 2026-05-08 18:04 | 36.05948 | -11.38241 | 40758 ft | 526 kts | 27° |
| 2026-05-08 18:05 | 36.12300 | -11.33712 | 40760 ft | 526 kts | 28° |
| 2026-05-08 18:05 | 36.18634 | -11.29185 | 40758 ft | 526 kts | 28° |
| 2026-05-08 18:06 | 36.24969 | -11.24649 | 40759 ft | 526 kts | 28° |
| 2026-05-08 18:06 | 36.31299 | -11.20109 | 40756 ft | 526 kts | 28° |
| 2026-05-08 18:07 | 36.37635 | -11.15555 | 40761 ft | 526 kts | 28° |
| 2026-05-08 18:07 | 36.43962 | -11.11000 | 40758 ft | 526 kts | 28° |
| 2026-05-08 18:08 | 36.50289 | -11.06436 | 40752 ft | 526 kts | 28° |
| 2026-05-08 18:08 | 36.56583 | -11.01887 | 40753 ft | 526 kts | 28° |
| 2026-05-08 18:09 | 36.62914 | -10.97303 | 40751 ft | 526 kts | 28° |
| 2026-05-08 18:09 | 36.69248 | -10.92708 | 40756 ft | 527 kts | 28° |
| 2026-05-08 18:10 | 36.75588 | -10.88100 | 40754 ft | 527 kts | 28° |
| 2026-05-08 18:10 | 36.81921 | -10.83487 | 40753 ft | 526 kts | 28° |
| 2026-05-08 18:11 | 36.85048 | -10.81205 | 40573 ft | 516 kts | 28° |
| 2026-05-08 18:11 | 36.88126 | -10.78957 | 40339 ft | 508 kts | 28° |
| 2026-05-08 18:11 | 36.91143 | -10.76752 | 40102 ft | 499 kts | 28° |
| 2026-05-08 18:11 | 36.94124 | -10.74572 | 39867 ft | 491 kts | 28° |
| 2026-05-08 18:12 | 36.97049 | -10.72430 | 39639 ft | 484 kts | 28° |
| 2026-05-08 18:12 | 36.99927 | -10.70321 | 39403 ft | 477 kts | 28° |
| 2026-05-08 18:12 | 37.02773 | -10.68234 | 39189 ft | 473 kts | 28° |
| 2026-05-08 18:12 | 37.05619 | -10.66146 | 38974 ft | 474 kts | 28° |
| 2026-05-08 18:13 | 37.08431 | -10.64081 | 38754 ft | 476 kts | 29° |
| 2026-05-08 18:13 | 37.11290 | -10.61979 | 38539 ft | 475 kts | 29° |
| 2026-05-08 18:13 | 37.14127 | -10.59893 | 38295 ft | 473 kts | 29° |
| 2026-05-08 18:13 | 37.16958 | -10.57807 | 37895 ft | 471 kts | 29° |
| 2026-05-08 18:14 | 37.19784 | -10.55723 | 37425 ft | 470 kts | 29° |
| 2026-05-08 18:14 | 37.22600 | -10.53645 | 36968 ft | 468 kts | 29° |
| 2026-05-08 18:14 | 37.25403 | -10.51574 | 36510 ft | 466 kts | 29° |
| 2026-05-08 18:14 | 37.28193 | -10.49512 | 36054 ft | 465 kts | 29° |
| 2026-05-08 18:15 | 37.30975 | -10.47453 | 35595 ft | 464 kts | 29° |
| 2026-05-08 18:15 | 37.33756 | -10.45395 | 35154 ft | 462 kts | 29° |
| 2026-05-08 18:15 | 37.36530 | -10.43339 | 34689 ft | 461 kts | 29° |
| 2026-05-08 18:15 | 37.39292 | -10.41290 | 34240 ft | 461 kts | 29° |
| 2026-05-08 18:16 | 37.42050 | -10.39243 | 33782 ft | 460 kts | 29° |
| 2026-05-08 18:16 | 37.44802 | -10.37199 | 33281 ft | 458 kts | 30° |
| 2026-05-08 18:16 | 37.47535 | -10.35169 | 32831 ft | 455 kts | 30° |
| 2026-05-08 18:16 | 37.50248 | -10.33151 | 32383 ft | 451 kts | 30° |
| 2026-05-08 18:17 | 37.52908 | -10.31170 | 31941 ft | 448 kts | 30° |
| 2026-05-08 18:17 | 37.55581 | -10.29179 | 31496 ft | 445 kts | 30° |
| 2026-05-08 18:17 | 37.58235 | -10.27199 | 31046 ft | 442 kts | 30° |
| 2026-05-08 18:17 | 37.60875 | -10.25228 | 30614 ft | 438 kts | 31° |
| 2026-05-08 18:18 | 37.63487 | -10.23276 | 30179 ft | 435 kts | 31° |
| 2026-05-08 18:18 | 37.66081 | -10.21336 | 29721 ft | 432 kts | 31° |
| 2026-05-08 18:18 | 37.68656 | -10.19409 | 29258 ft | 427 kts | 31° |
| 2026-05-08 18:18 | 37.71178 | -10.17488 | 28840 ft | 420 kts | 34° |
| 2026-05-08 18:19 | 37.73426 | -10.15211 | 28517 ft | 408 kts | 47° |
| 2026-05-08 18:19 | 37.75402 | -10.12693 | 28207 ft | 399 kts | 49° |
| 2026-05-08 18:19 | 37.77348 | -10.10233 | 27912 ft | 394 kts | 48° |
| 2026-05-08 18:19 | 37.79292 | -10.07791 | 27616 ft | 394 kts | 48° |
| 2026-05-08 18:20 | 37.81235 | -10.05357 | 27324 ft | 392 kts | 48° |
| 2026-05-08 18:20 | 37.83161 | -10.02946 | 27018 ft | 388 kts | 48° |
| 2026-05-08 18:20 | 37.85068 | -10.00557 | 26732 ft | 384 kts | 48° |
| 2026-05-08 18:20 | 37.86958 | -9.98185 | 26458 ft | 382 kts | 48° |
| 2026-05-08 18:21 | 37.88839 | -9.95823 | 26160 ft | 380 kts | 48° |
| 2026-05-08 18:21 | 37.90708 | -9.93473 | 25872 ft | 377 kts | 48° |
| 2026-05-08 18:21 | 37.92537 | -9.91172 | 25591 ft | 374 kts | 48° |
| 2026-05-08 18:21 | 37.94378 | -9.88854 | 25314 ft | 372 kts | 48° |
| 2026-05-08 18:22 | 37.96207 | -9.86550 | 25045 ft | 370 kts | 48° |
| 2026-05-08 18:22 | 37.98020 | -9.84263 | 24757 ft | 367 kts | 48° |
| 2026-05-08 18:22 | 37.99771 | -9.81921 | 24486 ft | 362 kts | 55° |
| 2026-05-08 18:22 | 38.01158 | -9.79295 | 24214 ft | 355 kts | 67° |
| 2026-05-08 18:23 | 38.02336 | -9.76553 | 23944 ft | 354 kts | 67° |
| 2026-05-08 18:23 | 38.03524 | -9.73828 | 23678 ft | 352 kts | 66° |
| 2026-05-08 18:23 | 38.04717 | -9.71126 | 23415 ft | 350 kts | 66° |
| 2026-05-08 18:23 | 38.05908 | -9.68441 | 23126 ft | 348 kts | 66° |
| 2026-05-08 18:24 | 38.07093 | -9.65773 | 22856 ft | 347 kts | 66° |
| 2026-05-08 18:24 | 38.07615 | -9.64597 | 22747 ft | 346 kts | 66° |
| 2026-05-08 18:24 | 38.08417 | -9.62778 | 22572 ft | 346 kts | 66° |
| 2026-05-08 18:24 | 38.09576 | -9.60120 | 22312 ft | 344 kts | 66° |
| 2026-05-08 18:25 | 38.10733 | -9.57471 | 22057 ft | 342 kts | 66° |
| 2026-05-08 18:25 | 38.11879 | -9.54865 | 21801 ft | 341 kts | 66° |
| 2026-05-08 18:25 | 38.13037 | -9.52242 | 21545 ft | 339 kts | 66° |
| 2026-05-08 18:25 | 38.14193 | -9.49631 | 21297 ft | 338 kts | 65° |
| 2026-05-08 18:26 | 38.15344 | -9.47029 | 21030 ft | 337 kts | 65° |
| 2026-05-08 18:26 | 38.16491 | -9.44436 | 20788 ft | 336 kts | 65° |
| 2026-05-08 18:26 | 38.17631 | -9.41855 | 20528 ft | 334 kts | 65° |
| 2026-05-08 18:26 | 38.18399 | -9.40115 | 20354 ft | 334 kts | 65° |
| 2026-05-08 18:27 | 38.19517 | -9.37581 | 20106 ft | 332 kts | 65° |
| 2026-05-08 18:27 | 38.20280 | -9.35848 | 19929 ft | 332 kts | 65° |
| 2026-05-08 18:27 | 38.21766 | -9.32471 | 19602 ft | 330 kts | 65° |
| 2026-05-08 18:27 | 38.22882 | -9.29933 | 19360 ft | 329 kts | 65° |
| 2026-05-08 18:28 | 38.23997 | -9.27393 | 19113 ft | 327 kts | 65° |
| 2026-05-08 18:28 | 38.25104 | -9.24868 | 18864 ft | 326 kts | 65° |
| 2026-05-08 18:28 | 38.26211 | -9.22343 | 18615 ft | 325 kts | 65° |
| 2026-05-08 18:28 | 38.27309 | -9.19836 | 18374 ft | 324 kts | 65° |
| 2026-05-08 18:29 | 38.28404 | -9.17334 | 18127 ft | 323 kts | 65° |
| 2026-05-08 18:29 | 38.29495 | -9.14838 | 17870 ft | 321 kts | 65° |
| 2026-05-08 18:29 | 38.30576 | -9.12366 | 17627 ft | 320 kts | 65° |
| 2026-05-08 18:29 | 38.31653 | -9.09899 | 17389 ft | 317 kts | 66° |
| 2026-05-08 18:30 | 38.32722 | -9.07447 | 17133 ft | 315 kts | 66° |
| 2026-05-08 18:30 | 38.33770 | -9.05043 | 16923 ft | 314 kts | 66° |
| 2026-05-08 18:30 | 38.34826 | -9.02615 | 16677 ft | 312 kts | 66° |
| 2026-05-08 18:30 | 38.35877 | -9.00199 | 16435 ft | 311 kts | 66° |
| 2026-05-08 18:31 | 38.36920 | -8.97800 | 16207 ft | 309 kts | 66° |
| 2026-05-08 18:31 | 38.37957 | -8.95410 | 15975 ft | 307 kts | 66° |
| 2026-05-08 18:31 | 38.38987 | -8.93035 | 15742 ft | 305 kts | 66° |
| 2026-05-08 18:31 | 38.40010 | -8.90674 | 15515 ft | 303 kts | 66° |
| 2026-05-08 18:32 | 38.41029 | -8.88321 | 15281 ft | 302 kts | 67° |
| 2026-05-08 18:32 | 38.42027 | -8.86014 | 15061 ft | 300 kts | 67° |
| 2026-05-08 18:32 | 38.43035 | -8.83684 | 14834 ft | 299 kts | 67° |
| 2026-05-08 18:32 | 38.44034 | -8.81370 | 14611 ft | 297 kts | 67° |
| 2026-05-08 18:33 | 38.45016 | -8.79096 | 14388 ft | 295 kts | 67° |
| 2026-05-08 18:33 | 38.46004 | -8.76806 | 14171 ft | 294 kts | 67° |
| 2026-05-08 18:33 | 38.46986 | -8.74528 | 13943 ft | 292 kts | 67° |
| 2026-05-08 18:33 | 38.47963 | -8.72258 | 13728 ft | 291 kts | 67° |
| 2026-05-08 18:34 | 38.48934 | -8.69999 | 13497 ft | 289 kts | 67° |
| 2026-05-08 18:34 | 38.49897 | -8.67759 | 13269 ft | 287 kts | 67° |
| 2026-05-08 18:34 | 38.50855 | -8.65523 | 13056 ft | 287 kts | 67° |
| 2026-05-08 18:34 | 38.51813 | -8.63290 | 12847 ft | 285 kts | 67° |
| 2026-05-08 18:35 | 38.52764 | -8.61076 | 12623 ft | 283 kts | 67° |
| 2026-05-08 18:35 | 38.53710 | -8.58877 | 12413 ft | 282 kts | 66° |
| 2026-05-08 18:35 | 38.54983 | -8.56939 | 12191 ft | 291 kts | 42° |
| 2026-05-08 18:35 | 38.56790 | -8.55771 | 11990 ft | 294 kts | 16° |
| 2026-05-08 18:36 | 38.58824 | -8.55565 | 11774 ft | 294 kts | 355° |
| 2026-05-08 18:36 | 38.60854 | -8.55860 | 11555 ft | 293 kts | 351° |
| 2026-05-08 18:36 | 38.62850 | -8.56171 | 11343 ft | 292 kts | 353° |
| 2026-05-08 18:36 | 38.64873 | -8.56365 | 11112 ft | 291 kts | 356° |
| 2026-05-08 18:37 | 38.66891 | -8.56445 | 10900 ft | 289 kts | 359° |
| 2026-05-08 18:37 | 38.68899 | -8.56457 | 10686 ft | 288 kts | 0° |
| 2026-05-08 18:37 | 38.70897 | -8.56439 | 10461 ft | 286 kts | 1° |
| 2026-05-08 18:37 | 38.72885 | -8.56414 | 10242 ft | 285 kts | 1° |
| 2026-05-08 18:38 | 38.74863 | -8.56392 | 10027 ft | 284 kts | 1° |
| 2026-05-08 18:38 | 38.76828 | -8.56374 | 9817 ft | 283 kts | 1° |
| 2026-05-08 18:38 | 38.78795 | -8.56357 | 9598 ft | 281 kts | 1° |
| 2026-05-08 18:38 | 38.80742 | -8.56340 | 9375 ft | 280 kts | 1° |
| 2026-05-08 18:39 | 38.82688 | -8.56324 | 9164 ft | 279 kts | 1° |
| 2026-05-08 18:39 | 38.84627 | -8.56307 | 8949 ft | 277 kts | 360° |
| 2026-05-08 18:39 | 38.86554 | -8.56302 | 8745 ft | 277 kts | 1° |
| 2026-05-08 18:39 | 38.88457 | -8.56292 | 8541 ft | 276 kts | 1° |
| 2026-05-08 18:40 | 38.90375 | -8.56275 | 8325 ft | 276 kts | 1° |
| 2026-05-08 18:40 | 38.92295 | -8.56258 | 8120 ft | 274 kts | 1° |
| 2026-05-08 18:40 | 38.94186 | -8.56458 | 7920 ft | 274 kts | 344° |
| 2026-05-08 18:40 | 38.95860 | -8.57572 | 7795 ft | 271 kts | 317° |
| 2026-05-08 18:41 | 38.96980 | -8.59452 | 7685 ft | 262 kts | 289° |
| 2026-05-08 18:41 | 38.97322 | -8.61675 | 7568 ft | 250 kts | 261° |
| 2026-05-08 18:41 | 38.97033 | -8.63838 | 7405 ft | 243 kts | 249° |
| 2026-05-08 18:41 | 38.96658 | -8.65929 | 7153 ft | 237 kts | 251° |
| 2026-05-08 18:42 | 38.96614 | -8.68021 | 6961 ft | 237 kts | 275° |
| 2026-05-08 18:42 | 38.97339 | -8.70070 | 6891 ft | 263 kts | 302° |
| 2026-05-08 18:42 | 38.98720 | -8.71599 | 6820 ft | 260 kts | 330° |
| 2026-05-08 18:42 | 39.00391 | -8.72170 | 6812 ft | 241 kts | 359° |
| 2026-05-08 18:43 | 39.02041 | -8.72028 | 6814 ft | 239 kts | 8° |
| 2026-05-08 18:43 | 39.03695 | -8.71858 | 6813 ft | 237 kts | 4° |
| 2026-05-08 18:43 | 39.05348 | -8.71900 | 6811 ft | 238 kts | 357° |
| 2026-05-08 18:43 | 39.06952 | -8.72375 | 6815 ft | 238 kts | 336° |
| 2026-05-08 18:44 | 39.08362 | -8.73414 | 6819 ft | 236 kts | 322° |
| 2026-05-08 18:44 | 39.09704 | -8.74631 | 6806 ft | 236 kts | 321° |
| 2026-05-08 18:44 | 39.11053 | -8.75839 | 6809 ft | 236 kts | 322° |
| 2026-05-08 18:44 | 39.12418 | -8.77027 | 6812 ft | 236 kts | 323° |
| 2026-05-08 18:45 | 39.13789 | -8.78197 | 6816 ft | 236 kts | 323° |
| 2026-05-08 18:45 | 39.15112 | -8.79438 | 6809 ft | 234 kts | 314° |
| 2026-05-08 18:45 | 39.16141 | -8.81032 | 6814 ft | 229 kts | 297° |
| 2026-05-08 18:45 | 39.17016 | -8.82751 | 6812 ft | 230 kts | 297° |
| 2026-05-08 18:46 | 39.17901 | -8.84470 | 6795 ft | 230 kts | 298° |
| 2026-05-08 18:46 | 39.18794 | -8.86180 | 6797 ft | 230 kts | 298° |
| 2026-05-08 18:46 | 39.19693 | -8.87881 | 6812 ft | 230 kts | 298° |
| 2026-05-08 18:46 | 39.20594 | -8.89593 | 6814 ft | 230 kts | 298° |
| 2026-05-08 18:47 | 39.21269 | -8.91416 | 6815 ft | 224 kts | 280° |
| 2026-05-08 18:47 | 39.21577 | -8.93330 | 6796 ft | 221 kts | 272° |
| 2026-05-08 18:47 | 39.21850 | -8.95277 | 6797 ft | 220 kts | 273° |
| 2026-05-08 18:47 | 39.22139 | -8.97219 | 6797 ft | 220 kts | 274° |
| 2026-05-08 18:48 | 39.22442 | -8.99163 | 6799 ft | 221 kts | 274° |
| 2026-05-08 18:48 | 39.22751 | -9.01102 | 6802 ft | 220 kts | 274° |
| 2026-05-08 18:48 | 39.23027 | -9.03046 | 6803 ft | 218 kts | 268° |
| 2026-05-08 18:48 | 39.23011 | -9.04974 | 6805 ft | 213 kts | 254° |
| 2026-05-08 18:49 | 39.22718 | -9.06824 | 6795 ft | 209 kts | 249° |
| 2026-05-08 18:49 | 39.22403 | -9.08662 | 6798 ft | 210 kts | 249° |
| 2026-05-08 18:49 | 39.22106 | -9.10501 | 6798 ft | 209 kts | 250° |
| 2026-05-08 18:49 | 39.21610 | -9.12197 | 6794 ft | 199 kts | 229° |
| 2026-05-08 18:50 | 39.20652 | -9.13365 | 6800 ft | 189 kts | 204° |
| 2026-05-08 18:50 | 39.19435 | -9.13879 | 6738 ft | 183 kts | 182° |
| 2026-05-08 18:50 | 39.18197 | -9.13723 | 6568 ft | 179 kts | 163° |
| 2026-05-08 18:50 | 39.17109 | -9.12962 | 6359 ft | 178 kts | 144° |
| 2026-05-08 18:51 | 39.16125 | -9.11926 | 6198 ft | 185 kts | 144° |
| 2026-05-08 18:51 | 39.15138 | -9.10930 | 6135 ft | 174 kts | 146° |
| 2026-05-08 18:51 | 39.14197 | -9.10027 | 6061 ft | 163 kts | 147° |
| 2026-05-08 18:51 | 39.13313 | -9.09204 | 5990 ft | 154 kts | 148° |
| 2026-05-08 18:52 | 39.12452 | -9.08413 | 5845 ft | 151 kts | 148° |
| 2026-05-08 18:52 | 39.11588 | -9.07622 | 5646 ft | 151 kts | 148° |
| 2026-05-08 18:52 | 39.10747 | -9.06850 | 5449 ft | 151 kts | 148° |
| 2026-05-08 18:52 | 39.09894 | -9.06060 | 5255 ft | 151 kts | 148° |
| 2026-05-08 18:53 | 39.09050 | -9.05277 | 5083 ft | 149 kts | 148° |
| 2026-05-08 18:53 | 39.08194 | -9.04493 | 4941 ft | 151 kts | 150° |
| 2026-05-08 18:53 | 39.07334 | -9.03740 | 4808 ft | 149 kts | 151° |
| 2026-05-08 18:53 | 39.06789 | -9.03268 | 4738 ft | 152 kts | 150° |
| 2026-05-08 18:55 | 39.05134 | -9.01655 | 4476 ft | 149 kts | 146° |
| 2026-05-08 18:55 | 39.04304 | -9.00859 | 4370 ft | 148 kts | 152° |
| 2026-05-08 18:55 | 39.03381 | -9.00481 | 4310 ft | 133 kts | 175° |
| 2026-05-08 18:56 | 39.02490 | -9.00608 | 4253 ft | 129 kts | 191° |
| 2026-05-08 18:56 | 39.01633 | -9.00990 | 4196 ft | 128 kts | 198° |
| 2026-05-08 18:56 | 39.00804 | -9.01451 | 4140 ft | 130 kts | 199° |
| 2026-05-08 18:56 | 38.99977 | -9.01896 | 4083 ft | 131 kts | 198° |
| 2026-05-08 18:57 | 38.99143 | -9.02341 | 4021 ft | 127 kts | 198° |
| 2026-05-08 18:57 | 38.98586 | -9.02638 | 3987 ft | 132 kts | 198° |
| 2026-05-08 18:57 | 38.97491 | -9.03225 | 3908 ft | 130 kts | 198° |
| 2026-05-08 18:57 | 38.96675 | -9.03663 | 3843 ft | 128 kts | 198° |
| 2026-05-08 18:58 | 38.95837 | -9.04110 | 3773 ft | 129 kts | 198° |
| 2026-05-08 18:58 | 38.95012 | -9.04552 | 3625 ft | 130 kts | 198° |
| 2026-05-08 18:58 | 38.94169 | -9.04999 | 3485 ft | 129 kts | 199° |
| 2026-05-08 18:58 | 38.93308 | -9.05462 | 3322 ft | 132 kts | 198° |
| 2026-05-08 18:59 | 38.92461 | -9.05918 | 3179 ft | 134 kts | 199° |
| 2026-05-08 18:59 | 38.91607 | -9.06375 | 3018 ft | 131 kts | 199° |
| 2026-05-08 18:59 | 38.90751 | -9.06832 | 2822 ft | 134 kts | 198° |
| 2026-05-08 18:59 | 38.89902 | -9.07284 | 2666 ft | 127 kts | 199° |
| 2026-05-08 19:00 | 38.89372 | -9.07573 | 2545 ft | 124 kts | 199° |
| 2026-05-08 19:00 | 38.88308 | -9.08141 | 2334 ft | 122 kts | 200° |
| 2026-05-08 19:00 | 38.87515 | -9.08564 | 2165 ft | 121 kts | 200° |
| 2026-05-08 19:00 | 38.86735 | -9.08985 | 2002 ft | 118 kts | 198° |
| 2026-05-08 19:01 | 38.85959 | -9.09395 | 1827 ft | 127 kts | 199° |
| 2026-05-08 19:01 | 38.85144 | -9.09836 | 1672 ft | 128 kts | 200° |
| 2026-05-08 19:01 | 38.84354 | -9.10262 | 1476 ft | 122 kts | 198° |
| 2026-05-08 19:01 | 38.83565 | -9.10680 | 1460 ft | 131 kts | 199° |
| 2026-05-08 19:02 | 38.82738 | -9.11141 | 1217 ft | 125 kts | 200° |
| 2026-05-08 19:02 | 38.81945 | -9.11567 | 927 ft | 127 kts | 195° |
| 2026-05-08 19:02 | 38.81031 | -9.12020 | 788 ft | 146 kts | 201° |
| 2026-05-08 19:02 | 38.80158 | -9.12525 | 564 ft | 131 kts | 196° |
| 2026-05-08 19:03 | 38.79366 | -9.12941 | 384 ft | 121 kts | 189° |
| 2026-05-08 19:03 | 38.78660 | -9.13301 | 366 ft | 77 kts | 204° |
| 2026-05-08 19:03 | 38.78228 | -9.13532 | 373 ft | 70 kts | 202° |
| 2026-05-08 19:03 | 38.77861 | -9.13728 | 373 ft | 46 kts | 198° |
| 2026-05-08 19:04 | 38.77594 | -9.13765 | 372 ft | 21 kts | 197° |
| 2026-05-08 19:04 | 38.77524 | -9.13762 | 372 ft | 0 kts | 158° |
| 2026-05-08 19:06 | 38.77515 | -9.13758 | 371 ft | 6 kts | 161° |
| 2026-05-08 19:07 | 38.77450 | -9.13751 | 365 ft | 12 kts | 179° |
| 2026-05-08 19:07 | 38.77357 | -9.13781 | 364 ft | 16 kts | 198° |
| 2026-05-08 19:07 | 38.77247 | -9.13829 | 363 ft | 17 kts | 200° |
| 2026-05-08 19:07 | 38.77132 | -9.13896 | 362 ft | 19 kts | 202° |
| 2026-05-08 19:08 | 38.77053 | -9.13888 | 364 ft | 12 kts | 168° |
| 2026-05-08 19:08 | 38.76968 | -9.13862 | 358 ft | 14 kts | 166° |
| 2026-05-08 19:08 | 38.76868 | -9.13837 | 355 ft | 14 kts | 170° |
| 2026-05-08 19:08 | 38.76800 | -9.13820 | 359 ft | 9 kts | 169° |
| 2026-05-08 19:09 | 38.76778 | -9.13775 | 360 ft | 5 kts | 101° |
| 2026-05-08 19:09 | 38.76778 | -9.13757 | 351 ft | 3 kts | 91° |
| 2026-05-08 19:09 | 38.76782 | -9.13711 | 355 ft | 2 kts | 82° |
| 2026-05-08 19:09 | 38.76783 | -9.13695 | 357 ft | 0 kts | 82° |
| 2026-05-08 19:10 | 38.76784 | -9.13691 | 357 ft | 0 kts | 82° |
| 2026-05-08 19:11 | 38.76778 | -9.13761 | 351 ft | 0 kts | 91° |
| 2026-05-08 19:11 | 38.77524 | -9.13762 | 367 ft | 0 kts | 158° |
| 2026-05-08 19:11 | 39.16268 | -9.12074 | 367 ft | 0 kts | 144° |
| 2026-05-08 19:12 | 38.88550 | -9.08012 | 367 ft | 0 kts | 199° |
| 2026-05-08 19:12 | 38.77524 | -9.13762 | 367 ft | 0 kts | 158° |